<?xml version="1.0" encoding="UTF-8" standalone="no" ?>
<gpx xmlns="http://www.topografix.com/GPX/1/1" xmlns:xsi="http://www.w3.org/2001/XMLSchema-instance" xsi:schemaLocation="http://www.topografix.com/GPX/1/1 http://www.topografix.com/GPX/1/1/gpx.xsd" version="1.1" creator="VisuGPX - https://www.visugpx.com">
  <metadata>
    <name>Mont d\'or Steph 2</name>
    <desc><![CDATA[Mont d\\\'or Steph 2]]></desc>
  </metadata>
  <trk>
    <name><![CDATA[ACTIVE LOG083818]]></name>
    <trkseg>
      <trkpt lat="45.84029" lon="4.84928">
        <ele>209.01</ele>
        <time>2015-05-24T06:38:18Z</time>
      </trkpt>
      <trkpt lat="45.84029" lon="4.84928">
        <ele>179.007</ele>
        <time>2015-05-24T06:38:19Z</time>
      </trkpt>
      <trkpt lat="45.84029" lon="4.84928">
        <ele>179.514</ele>
        <time>2015-05-24T06:38:20Z</time>
      </trkpt>
    </trkseg>
  </trk>
  <trk>
    <name><![CDATA[ACTIVE LOG083847]]></name>
    <trkseg>
      <trkpt lat="45.84029" lon="4.84928">
        <ele>179.12</ele>
        <time>2015-05-24T06:38:46Z</time>
      </trkpt>
      <trkpt lat="45.84029" lon="4.84928">
        <ele>180.74</ele>
        <time>2015-05-24T06:39:01Z</time>
      </trkpt>
      <trkpt lat="45.84029" lon="4.84928">
        <ele>178.721</ele>
        <time>2015-05-24T06:39:06Z</time>
      </trkpt>
      <trkpt lat="45.84029" lon="4.84928">
        <ele>179.945</ele>
        <time>2015-05-24T06:39:08Z</time>
      </trkpt>
      <trkpt lat="45.84029" lon="4.84928">
        <ele>178.668</ele>
        <time>2015-05-24T06:39:20Z</time>
      </trkpt>
      <trkpt lat="45.84029" lon="4.84928">
        <ele>180.04</ele>
        <time>2015-05-24T06:39:22Z</time>
      </trkpt>
      <trkpt lat="45.84029" lon="4.84928">
        <ele>180.222</ele>
        <time>2015-05-24T06:40:29Z</time>
      </trkpt>
    </trkseg>
  </trk>
  <trk>
    <name><![CDATA[ACTIVE LOG084037]]></name>
    <trkseg>
      <trkpt lat="45.84045" lon="4.84952">
        <ele>179.923</ele>
        <time>2015-05-24T06:40:37Z</time>
      </trkpt>
      <trkpt lat="45.84048" lon="4.84948">
        <ele>179.229</ele>
        <time>2015-05-24T06:40:44Z</time>
      </trkpt>
      <trkpt lat="45.8404" lon="4.84908">
        <ele>179.075</ele>
        <time>2015-05-24T06:40:56Z</time>
      </trkpt>
      <trkpt lat="45.84037" lon="4.84877">
        <ele>178.602</ele>
        <time>2015-05-24T06:41:03Z</time>
      </trkpt>
      <trkpt lat="45.84048" lon="4.84852">
        <ele>178.737</ele>
        <time>2015-05-24T06:41:06Z</time>
      </trkpt>
      <trkpt lat="45.84042" lon="4.84802">
        <ele>178.999</ele>
        <time>2015-05-24T06:41:14Z</time>
      </trkpt>
      <trkpt lat="45.84031" lon="4.84693">
        <ele>176.459</ele>
        <time>2015-05-24T06:41:30Z</time>
      </trkpt>
      <trkpt lat="45.8401" lon="4.84548">
        <ele>176.364</ele>
        <time>2015-05-24T06:41:48Z</time>
      </trkpt>
      <trkpt lat="45.84" lon="4.84508">
        <ele>175.82</ele>
        <time>2015-05-24T06:41:54Z</time>
      </trkpt>
      <trkpt lat="45.83964" lon="4.8442">
        <ele>174.896</ele>
        <time>2015-05-24T06:42:07Z</time>
      </trkpt>
      <trkpt lat="45.83957" lon="4.84409">
        <ele>174.896</ele>
        <time>2015-05-24T06:42:09Z</time>
      </trkpt>
      <trkpt lat="45.83897" lon="4.8433">
        <ele>173.829</ele>
        <time>2015-05-24T06:42:24Z</time>
      </trkpt>
      <trkpt lat="45.83851" lon="4.84202">
        <ele>170.971</ele>
        <time>2015-05-24T06:42:40Z</time>
      </trkpt>
      <trkpt lat="45.83826" lon="4.84131">
        <ele>169.815</ele>
        <time>2015-05-24T06:42:49Z</time>
      </trkpt>
      <trkpt lat="45.83813" lon="4.84107">
        <ele>168.621</ele>
        <time>2015-05-24T06:42:53Z</time>
      </trkpt>
      <trkpt lat="45.83771" lon="4.84056">
        <ele>169.168</ele>
        <time>2015-05-24T06:43:03Z</time>
      </trkpt>
      <trkpt lat="45.83762" lon="4.84044">
        <ele>169.029</ele>
        <time>2015-05-24T06:43:05Z</time>
      </trkpt>
      <trkpt lat="45.83752" lon="4.84005">
        <ele>169.021</ele>
        <time>2015-05-24T06:43:11Z</time>
      </trkpt>
      <trkpt lat="45.83745" lon="4.83956">
        <ele>169.87</ele>
        <time>2015-05-24T06:43:19Z</time>
      </trkpt>
      <trkpt lat="45.83738" lon="4.83938">
        <ele>168.644</ele>
        <time>2015-05-24T06:43:22Z</time>
      </trkpt>
      <trkpt lat="45.83733" lon="4.83934">
        <ele>168.323</ele>
        <time>2015-05-24T06:43:23Z</time>
      </trkpt>
      <trkpt lat="45.83658" lon="4.83874">
        <ele>164.749</ele>
        <time>2015-05-24T06:43:37Z</time>
      </trkpt>
      <trkpt lat="45.83631" lon="4.83852">
        <ele>163.816</ele>
        <time>2015-05-24T06:43:42Z</time>
      </trkpt>
      <trkpt lat="45.83611" lon="4.83823">
        <ele>163.682</ele>
        <time>2015-05-24T06:43:47Z</time>
      </trkpt>
      <trkpt lat="45.83603" lon="4.83818">
        <ele>162.341</ele>
        <time>2015-05-24T06:43:50Z</time>
      </trkpt>
      <trkpt lat="45.83602" lon="4.83802">
        <ele>163.149</ele>
        <time>2015-05-24T06:43:54Z</time>
      </trkpt>
      <trkpt lat="45.83668" lon="4.83697">
        <ele>164.164</ele>
        <time>2015-05-24T06:44:15Z</time>
      </trkpt>
      <trkpt lat="45.83763" lon="4.83561">
        <ele>165.687</ele>
        <time>2015-05-24T06:44:42Z</time>
      </trkpt>
      <trkpt lat="45.83847" lon="4.83468">
        <ele>165.719</ele>
        <time>2015-05-24T06:45:05Z</time>
      </trkpt>
      <trkpt lat="45.83957" lon="4.83402">
        <ele>165.593</ele>
        <time>2015-05-24T06:45:29Z</time>
      </trkpt>
      <trkpt lat="45.83979" lon="4.83395">
        <ele>164.945</ele>
        <time>2015-05-24T06:45:34Z</time>
      </trkpt>
      <trkpt lat="45.83942" lon="4.83397">
        <ele>164.129</ele>
        <time>2015-05-24T06:45:38Z</time>
      </trkpt>
      <trkpt lat="45.83954" lon="4.8336">
        <ele>162.329</ele>
        <time>2015-05-24T06:45:47Z</time>
      </trkpt>
      <trkpt lat="45.83945" lon="4.83357">
        <ele>161.772</ele>
        <time>2015-05-24T06:45:49Z</time>
      </trkpt>
      <trkpt lat="45.83921" lon="4.83372">
        <ele>160.684</ele>
        <time>2015-05-24T06:45:53Z</time>
      </trkpt>
      <trkpt lat="45.83904" lon="4.83357">
        <ele>160.826</ele>
        <time>2015-05-24T06:45:57Z</time>
      </trkpt>
      <trkpt lat="45.83933" lon="4.83317">
        <ele>160.454</ele>
        <time>2015-05-24T06:46:01Z</time>
      </trkpt>
      <trkpt lat="45.84013" lon="4.83306">
        <ele>160.249</ele>
        <time>2015-05-24T06:46:19Z</time>
      </trkpt>
      <trkpt lat="45.84043" lon="4.83307">
        <ele>161.446</ele>
        <time>2015-05-24T06:46:25Z</time>
      </trkpt>
      <trkpt lat="45.84104" lon="4.8332">
        <ele>161.899</ele>
        <time>2015-05-24T06:46:37Z</time>
      </trkpt>
      <trkpt lat="45.8418" lon="4.83345">
        <ele>161.505</ele>
        <time>2015-05-24T06:46:53Z</time>
      </trkpt>
      <trkpt lat="45.84323" lon="4.83396">
        <ele>162.463</ele>
        <time>2015-05-24T06:47:21Z</time>
      </trkpt>
      <trkpt lat="45.84405" lon="4.83428">
        <ele>162.293</ele>
        <time>2015-05-24T06:47:38Z</time>
      </trkpt>
      <trkpt lat="45.84453" lon="4.83464">
        <ele>164.075</ele>
        <time>2015-05-24T06:47:53Z</time>
      </trkpt>
      <trkpt lat="45.84474" lon="4.83495">
        <ele>164.458</ele>
        <time>2015-05-24T06:48:02Z</time>
      </trkpt>
      <trkpt lat="45.84497" lon="4.83419">
        <ele>166.573</ele>
        <time>2015-05-24T06:48:16Z</time>
      </trkpt>
      <trkpt lat="45.84507" lon="4.83347">
        <ele>168.098</ele>
        <time>2015-05-24T06:48:29Z</time>
      </trkpt>
      <trkpt lat="45.84512" lon="4.83311">
        <ele>166.481</ele>
        <time>2015-05-24T06:48:35Z</time>
      </trkpt>
      <trkpt lat="45.84522" lon="4.83242">
        <ele>164.481</ele>
        <time>2015-05-24T06:48:52Z</time>
      </trkpt>
      <trkpt lat="45.84524" lon="4.83236">
        <ele>163.881</ele>
        <time>2015-05-24T06:48:54Z</time>
      </trkpt>
      <trkpt lat="45.84524" lon="4.83235">
        <ele>164.17</ele>
        <time>2015-05-24T06:48:58Z</time>
      </trkpt>
      <trkpt lat="45.84545" lon="4.83194">
        <ele>164.4</ele>
        <time>2015-05-24T06:49:02Z</time>
      </trkpt>
      <trkpt lat="45.84546" lon="4.83163">
        <ele>164.193</ele>
        <time>2015-05-24T06:49:09Z</time>
      </trkpt>
      <trkpt lat="45.8455" lon="4.83156">
        <ele>164.344</ele>
        <time>2015-05-24T06:49:14Z</time>
      </trkpt>
      <trkpt lat="45.84545" lon="4.83131">
        <ele>163.773</ele>
        <time>2015-05-24T06:49:18Z</time>
      </trkpt>
      <trkpt lat="45.84529" lon="4.8304">
        <ele>166.822</ele>
        <time>2015-05-24T06:49:34Z</time>
      </trkpt>
      <trkpt lat="45.845" lon="4.82935">
        <ele>170.303</ele>
        <time>2015-05-24T06:49:55Z</time>
      </trkpt>
      <trkpt lat="45.84489" lon="4.82897">
        <ele>171.423</ele>
        <time>2015-05-24T06:50:04Z</time>
      </trkpt>
      <trkpt lat="45.84489" lon="4.82838">
        <ele>174.84</ele>
        <time>2015-05-24T06:50:18Z</time>
      </trkpt>
      <trkpt lat="45.84475" lon="4.82786">
        <ele>177.56</ele>
        <time>2015-05-24T06:50:33Z</time>
      </trkpt>
      <trkpt lat="45.84453" lon="4.82727">
        <ele>181.743</ele>
        <time>2015-05-24T06:50:49Z</time>
      </trkpt>
      <trkpt lat="45.84452" lon="4.82724">
        <ele>181.598</ele>
        <time>2015-05-24T06:50:50Z</time>
      </trkpt>
      <trkpt lat="45.84457" lon="4.82675">
        <ele>184.699</ele>
        <time>2015-05-24T06:51:04Z</time>
      </trkpt>
      <trkpt lat="45.84461" lon="4.82616">
        <ele>188.27</ele>
        <time>2015-05-24T06:51:20Z</time>
      </trkpt>
      <trkpt lat="45.84469" lon="4.82577">
        <ele>190.071</ele>
        <time>2015-05-24T06:51:33Z</time>
      </trkpt>
      <trkpt lat="45.84476" lon="4.82575">
        <ele>191.766</ele>
        <time>2015-05-24T06:51:38Z</time>
      </trkpt>
      <trkpt lat="45.84476" lon="4.82575">
        <ele>192.067</ele>
        <time>2015-05-24T06:51:43Z</time>
      </trkpt>
      <trkpt lat="45.84483" lon="4.82573">
        <ele>192.812</ele>
        <time>2015-05-24T06:51:51Z</time>
      </trkpt>
      <trkpt lat="45.84489" lon="4.82572">
        <ele>193.267</ele>
        <time>2015-05-24T06:51:54Z</time>
      </trkpt>
      <trkpt lat="45.84497" lon="4.8257">
        <ele>195.149</ele>
        <time>2015-05-24T06:52:00Z</time>
      </trkpt>
      <trkpt lat="45.84511" lon="4.82569">
        <ele>198.098</ele>
        <time>2015-05-24T06:52:13Z</time>
      </trkpt>
      <trkpt lat="45.84519" lon="4.82569">
        <ele>199.508</ele>
        <time>2015-05-24T06:52:20Z</time>
      </trkpt>
      <trkpt lat="45.84522" lon="4.8257">
        <ele>201.325</ele>
        <time>2015-05-24T06:52:24Z</time>
      </trkpt>
      <trkpt lat="45.84522" lon="4.8257">
        <ele>203.081</ele>
        <time>2015-05-24T06:52:29Z</time>
      </trkpt>
      <trkpt lat="45.8453" lon="4.8257">
        <ele>202.984</ele>
        <time>2015-05-24T06:52:30Z</time>
      </trkpt>
      <trkpt lat="45.84543" lon="4.82571">
        <ele>205.135</ele>
        <time>2015-05-24T06:52:37Z</time>
      </trkpt>
      <trkpt lat="45.84568" lon="4.82574">
        <ele>204.949</ele>
        <time>2015-05-24T06:52:48Z</time>
      </trkpt>
      <trkpt lat="45.84579" lon="4.82575">
        <ele>206.579</ele>
        <time>2015-05-24T06:52:58Z</time>
      </trkpt>
      <trkpt lat="45.84611" lon="4.82569">
        <ele>209.759</ele>
        <time>2015-05-24T06:53:16Z</time>
      </trkpt>
      <trkpt lat="45.84627" lon="4.82572">
        <ele>212.997</ele>
        <time>2015-05-24T06:53:28Z</time>
      </trkpt>
      <trkpt lat="45.84627" lon="4.82572">
        <ele>213.005</ele>
        <time>2015-05-24T06:53:29Z</time>
      </trkpt>
      <trkpt lat="45.84636" lon="4.82564">
        <ele>214.766</ele>
        <time>2015-05-24T06:53:35Z</time>
      </trkpt>
      <trkpt lat="45.8464" lon="4.8254">
        <ele>218.208</ele>
        <time>2015-05-24T06:53:49Z</time>
      </trkpt>
      <trkpt lat="45.84641" lon="4.82538">
        <ele>218.214</ele>
        <time>2015-05-24T06:53:50Z</time>
      </trkpt>
      <trkpt lat="45.84641" lon="4.82536">
        <ele>218.287</ele>
        <time>2015-05-24T06:53:51Z</time>
      </trkpt>
      <trkpt lat="45.84641" lon="4.82539">
        <ele>219.87</ele>
        <time>2015-05-24T06:54:00Z</time>
      </trkpt>
      <trkpt lat="45.84639" lon="4.82547">
        <ele>221.239</ele>
        <time>2015-05-24T06:54:04Z</time>
      </trkpt>
      <trkpt lat="45.84636" lon="4.82565">
        <ele>224.271</ele>
        <time>2015-05-24T06:54:16Z</time>
      </trkpt>
      <trkpt lat="45.84635" lon="4.82567">
        <ele>224.812</ele>
        <time>2015-05-24T06:54:19Z</time>
      </trkpt>
      <trkpt lat="45.84635" lon="4.82567">
        <ele>226.036</ele>
        <time>2015-05-24T06:54:29Z</time>
      </trkpt>
      <trkpt lat="45.84639" lon="4.82545">
        <ele>222.224</ele>
        <time>2015-05-24T06:54:40Z</time>
      </trkpt>
      <trkpt lat="45.8464" lon="4.82541">
        <ele>222.228</ele>
        <time>2015-05-24T06:54:41Z</time>
      </trkpt>
      <trkpt lat="45.84641" lon="4.82536">
        <ele>221.132</ele>
        <time>2015-05-24T06:54:44Z</time>
      </trkpt>
      <trkpt lat="45.84641" lon="4.82536">
        <ele>222.294</ele>
        <time>2015-05-24T06:54:50Z</time>
      </trkpt>
      <trkpt lat="45.84641" lon="4.82536">
        <ele>225.543</ele>
        <time>2015-05-24T06:55:02Z</time>
      </trkpt>
      <trkpt lat="45.84641" lon="4.82536">
        <ele>228.987</ele>
        <time>2015-05-24T06:55:13Z</time>
      </trkpt>
      <trkpt lat="45.84641" lon="4.82536">
        <ele>227.653</ele>
        <time>2015-05-24T06:55:15Z</time>
      </trkpt>
      <trkpt lat="45.84641" lon="4.82536">
        <ele>230.464</ele>
        <time>2015-05-24T06:55:33Z</time>
      </trkpt>
      <trkpt lat="45.84641" lon="4.82536">
        <ele>233.737</ele>
        <time>2015-05-24T06:55:49Z</time>
      </trkpt>
      <trkpt lat="45.84641" lon="4.82536">
        <ele>236.821</ele>
        <time>2015-05-24T06:56:07Z</time>
      </trkpt>
      <trkpt lat="45.84641" lon="4.82536">
        <ele>239.239</ele>
        <time>2015-05-24T06:56:23Z</time>
      </trkpt>
      <trkpt lat="45.84641" lon="4.82536">
        <ele>241.895</ele>
        <time>2015-05-24T06:56:38Z</time>
      </trkpt>
      <trkpt lat="45.84641" lon="4.82536">
        <ele>245.052</ele>
        <time>2015-05-24T06:56:51Z</time>
      </trkpt>
      <trkpt lat="45.84641" lon="4.82536">
        <ele>247.309</ele>
        <time>2015-05-24T06:57:06Z</time>
      </trkpt>
      <trkpt lat="45.84641" lon="4.82536">
        <ele>250.512</ele>
        <time>2015-05-24T06:57:21Z</time>
      </trkpt>
      <trkpt lat="45.84738" lon="4.82508">
        <ele>253.87</ele>
        <time>2015-05-24T06:57:36Z</time>
      </trkpt>
      <trkpt lat="45.84738" lon="4.82508">
        <ele>256.934</ele>
        <time>2015-05-24T06:57:52Z</time>
      </trkpt>
      <trkpt lat="45.84738" lon="4.82508">
        <ele>259.375</ele>
        <time>2015-05-24T06:58:17Z</time>
      </trkpt>
      <trkpt lat="45.84738" lon="4.82508">
        <ele>260.09</ele>
        <time>2015-05-24T06:58:26Z</time>
      </trkpt>
      <trkpt lat="45.84762" lon="4.82502">
        <ele>263.128</ele>
        <time>2015-05-24T06:58:45Z</time>
      </trkpt>
      <trkpt lat="45.84762" lon="4.82502">
        <ele>264.566</ele>
        <time>2015-05-24T06:59:00Z</time>
      </trkpt>
      <trkpt lat="45.84762" lon="4.82502">
        <ele>265.915</ele>
        <time>2015-05-24T06:59:02Z</time>
      </trkpt>
      <trkpt lat="45.84762" lon="4.82502">
        <ele>266.773</ele>
        <time>2015-05-24T06:59:15Z</time>
      </trkpt>
      <trkpt lat="45.84762" lon="4.82502">
        <ele>268.204</ele>
        <time>2015-05-24T06:59:31Z</time>
      </trkpt>
      <trkpt lat="45.84762" lon="4.82502">
        <ele>270.814</ele>
        <time>2015-05-24T06:59:45Z</time>
      </trkpt>
      <trkpt lat="45.84762" lon="4.82502">
        <ele>272.163</ele>
        <time>2015-05-24T06:59:59Z</time>
      </trkpt>
      <trkpt lat="45.84762" lon="4.82502">
        <ele>272.802</ele>
        <time>2015-05-24T07:00:05Z</time>
      </trkpt>
      <trkpt lat="45.84816" lon="4.82495">
        <ele>273.872</ele>
        <time>2015-05-24T07:00:16Z</time>
      </trkpt>
      <trkpt lat="45.8483" lon="4.82494">
        <ele>275.957</ele>
        <time>2015-05-24T07:00:22Z</time>
      </trkpt>
      <trkpt lat="45.8483" lon="4.82494">
        <ele>277.466</ele>
        <time>2015-05-24T07:00:29Z</time>
      </trkpt>
      <trkpt lat="45.84842" lon="4.82493">
        <ele>277.498</ele>
        <time>2015-05-24T07:00:31Z</time>
      </trkpt>
      <trkpt lat="45.84847" lon="4.82493">
        <ele>280.322</ele>
        <time>2015-05-24T07:00:43Z</time>
      </trkpt>
      <trkpt lat="45.84866" lon="4.82492">
        <ele>282.894</ele>
        <time>2015-05-24T07:00:55Z</time>
      </trkpt>
      <trkpt lat="45.84866" lon="4.82492">
        <ele>282.784</ele>
        <time>2015-05-24T07:00:59Z</time>
      </trkpt>
      <trkpt lat="45.84866" lon="4.82492">
        <ele>284.555</ele>
        <time>2015-05-24T07:01:12Z</time>
      </trkpt>
      <trkpt lat="45.84866" lon="4.82492">
        <ele>285.655</ele>
        <time>2015-05-24T07:01:31Z</time>
      </trkpt>
      <trkpt lat="45.84866" lon="4.82492">
        <ele>288.916</ele>
        <time>2015-05-24T07:01:50Z</time>
      </trkpt>
      <trkpt lat="45.84866" lon="4.82492">
        <ele>290.61</ele>
        <time>2015-05-24T07:02:07Z</time>
      </trkpt>
      <trkpt lat="45.84866" lon="4.82492">
        <ele>289.96</ele>
        <time>2015-05-24T07:02:16Z</time>
      </trkpt>
      <trkpt lat="45.8493" lon="4.82468">
        <ele>291.887</ele>
        <time>2015-05-24T07:02:28Z</time>
      </trkpt>
      <trkpt lat="45.8494" lon="4.82463">
        <ele>293.772</ele>
        <time>2015-05-24T07:02:35Z</time>
      </trkpt>
      <trkpt lat="45.84942" lon="4.82462">
        <ele>294.524</ele>
        <time>2015-05-24T07:02:37Z</time>
      </trkpt>
      <trkpt lat="45.84947" lon="4.8246">
        <ele>295.114</ele>
        <time>2015-05-24T07:02:40Z</time>
      </trkpt>
      <trkpt lat="45.84963" lon="4.8245">
        <ele>297.76</ele>
        <time>2015-05-24T07:02:52Z</time>
      </trkpt>
      <trkpt lat="45.8498" lon="4.82443">
        <ele>300.372</ele>
        <time>2015-05-24T07:03:03Z</time>
      </trkpt>
      <trkpt lat="45.84997" lon="4.82438">
        <ele>303.55</ele>
        <time>2015-05-24T07:03:21Z</time>
      </trkpt>
      <trkpt lat="45.85011" lon="4.82437">
        <ele>307.072</ele>
        <time>2015-05-24T07:03:34Z</time>
      </trkpt>
      <trkpt lat="45.85023" lon="4.82435">
        <ele>309.396</ele>
        <time>2015-05-24T07:03:44Z</time>
      </trkpt>
      <trkpt lat="45.85032" lon="4.82433">
        <ele>310.24</ele>
        <time>2015-05-24T07:03:48Z</time>
      </trkpt>
      <trkpt lat="45.85032" lon="4.82433">
        <ele>311.559</ele>
        <time>2015-05-24T07:03:52Z</time>
      </trkpt>
      <trkpt lat="45.85032" lon="4.82433">
        <ele>313.796</ele>
        <time>2015-05-24T07:03:59Z</time>
      </trkpt>
      <trkpt lat="45.85032" lon="4.82433">
        <ele>313.984</ele>
        <time>2015-05-24T07:04:00Z</time>
      </trkpt>
      <trkpt lat="45.85046" lon="4.82427">
        <ele>315.796</ele>
        <time>2015-05-24T07:04:12Z</time>
      </trkpt>
      <trkpt lat="45.85046" lon="4.82427">
        <ele>318.055</ele>
        <time>2015-05-24T07:04:29Z</time>
      </trkpt>
      <trkpt lat="45.85046" lon="4.82427">
        <ele>321.418</ele>
        <time>2015-05-24T07:04:44Z</time>
      </trkpt>
      <trkpt lat="45.85046" lon="4.82427">
        <ele>321.614</ele>
        <time>2015-05-24T07:05:03Z</time>
      </trkpt>
      <trkpt lat="45.85046" lon="4.82427">
        <ele>324.71</ele>
        <time>2015-05-24T07:05:21Z</time>
      </trkpt>
      <trkpt lat="45.85046" lon="4.82427">
        <ele>328.059</ele>
        <time>2015-05-24T07:05:37Z</time>
      </trkpt>
      <trkpt lat="45.85046" lon="4.82427">
        <ele>331.291</ele>
        <time>2015-05-24T07:05:51Z</time>
      </trkpt>
      <trkpt lat="45.85046" lon="4.82427">
        <ele>332.817</ele>
        <time>2015-05-24T07:06:12Z</time>
      </trkpt>
      <trkpt lat="45.85046" lon="4.82427">
        <ele>335.821</ele>
        <time>2015-05-24T07:06:29Z</time>
      </trkpt>
      <trkpt lat="45.85107" lon="4.82331">
        <ele>339.507</ele>
        <time>2015-05-24T07:06:44Z</time>
      </trkpt>
      <trkpt lat="45.85107" lon="4.82331">
        <ele>339.512</ele>
        <time>2015-05-24T07:06:45Z</time>
      </trkpt>
      <trkpt lat="45.85107" lon="4.82331">
        <ele>340.238</ele>
        <time>2015-05-24T07:07:10Z</time>
      </trkpt>
      <trkpt lat="45.85107" lon="4.82331">
        <ele>340.348</ele>
        <time>2015-05-24T07:07:58Z</time>
      </trkpt>
      <trkpt lat="45.85134" lon="4.82279">
        <ele>343.604</ele>
        <time>2015-05-24T07:08:21Z</time>
      </trkpt>
      <trkpt lat="45.8515" lon="4.82238">
        <ele>347.06</ele>
        <time>2015-05-24T07:08:40Z</time>
      </trkpt>
      <trkpt lat="45.85167" lon="4.82195">
        <ele>350.418</ele>
        <time>2015-05-24T07:08:59Z</time>
      </trkpt>
      <trkpt lat="45.85171" lon="4.82178">
        <ele>352.056</ele>
        <time>2015-05-24T07:09:07Z</time>
      </trkpt>
      <trkpt lat="45.85178" lon="4.82139">
        <ele>355.384</ele>
        <time>2015-05-24T07:09:22Z</time>
      </trkpt>
      <trkpt lat="45.85196" lon="4.82106">
        <ele>358.426</ele>
        <time>2015-05-24T07:09:38Z</time>
      </trkpt>
      <trkpt lat="45.85222" lon="4.82086">
        <ele>361.586</ele>
        <time>2015-05-24T07:09:54Z</time>
      </trkpt>
      <trkpt lat="45.85244" lon="4.82063">
        <ele>364.638</ele>
        <time>2015-05-24T07:10:10Z</time>
      </trkpt>
      <trkpt lat="45.85265" lon="4.82033">
        <ele>367.796</ele>
        <time>2015-05-24T07:10:26Z</time>
      </trkpt>
      <trkpt lat="45.85271" lon="4.82008">
        <ele>369.865</ele>
        <time>2015-05-24T07:10:36Z</time>
      </trkpt>
      <trkpt lat="45.85272" lon="4.8199">
        <ele>371.845</ele>
        <time>2015-05-24T07:10:43Z</time>
      </trkpt>
      <trkpt lat="45.85265" lon="4.81936">
        <ele>374.58</ele>
        <time>2015-05-24T07:11:03Z</time>
      </trkpt>
      <trkpt lat="45.85265" lon="4.8193">
        <ele>374.707</ele>
        <time>2015-05-24T07:11:05Z</time>
      </trkpt>
      <trkpt lat="45.85262" lon="4.81898">
        <ele>377.193</ele>
        <time>2015-05-24T07:11:17Z</time>
      </trkpt>
      <trkpt lat="45.85261" lon="4.81892">
        <ele>377.787</ele>
        <time>2015-05-24T07:11:19Z</time>
      </trkpt>
      <trkpt lat="45.85258" lon="4.81853">
        <ele>380.982</ele>
        <time>2015-05-24T07:11:33Z</time>
      </trkpt>
      <trkpt lat="45.85258" lon="4.8184">
        <ele>381.707</ele>
        <time>2015-05-24T07:11:38Z</time>
      </trkpt>
      <trkpt lat="45.85258" lon="4.81832">
        <ele>382.813</ele>
        <time>2015-05-24T07:11:41Z</time>
      </trkpt>
      <trkpt lat="45.85258" lon="4.81823">
        <ele>383.424</ele>
        <time>2015-05-24T07:11:44Z</time>
      </trkpt>
      <trkpt lat="45.85267" lon="4.81782">
        <ele>386.359</ele>
        <time>2015-05-24T07:11:59Z</time>
      </trkpt>
      <trkpt lat="45.85271" lon="4.81774">
        <ele>387.01</ele>
        <time>2015-05-24T07:12:02Z</time>
      </trkpt>
      <trkpt lat="45.85292" lon="4.81758">
        <ele>389.841</ele>
        <time>2015-05-24T07:12:15Z</time>
      </trkpt>
      <trkpt lat="45.85308" lon="4.81762">
        <ele>392.519</ele>
        <time>2015-05-24T07:12:26Z</time>
      </trkpt>
      <trkpt lat="45.85321" lon="4.81768">
        <ele>393.846</ele>
        <time>2015-05-24T07:12:34Z</time>
      </trkpt>
      <trkpt lat="45.85348" lon="4.81783">
        <ele>396.428</ele>
        <time>2015-05-24T07:12:49Z</time>
      </trkpt>
      <trkpt lat="45.85374" lon="4.81796">
        <ele>399.567</ele>
        <time>2015-05-24T07:13:04Z</time>
      </trkpt>
      <trkpt lat="45.85397" lon="4.81798">
        <ele>402.665</ele>
        <time>2015-05-24T07:13:16Z</time>
      </trkpt>
      <trkpt lat="45.85399" lon="4.81798">
        <ele>402.673</ele>
        <time>2015-05-24T07:13:17Z</time>
      </trkpt>
      <trkpt lat="45.85424" lon="4.8179">
        <ele>405.869</ele>
        <time>2015-05-24T07:13:30Z</time>
      </trkpt>
      <trkpt lat="45.85455" lon="4.81776">
        <ele>408.977</ele>
        <time>2015-05-24T07:13:46Z</time>
      </trkpt>
      <trkpt lat="45.85488" lon="4.81771">
        <ele>412.072</ele>
        <time>2015-05-24T07:14:00Z</time>
      </trkpt>
      <trkpt lat="45.85508" lon="4.81769">
        <ele>412.934</ele>
        <time>2015-05-24T07:14:16Z</time>
      </trkpt>
      <trkpt lat="45.85508" lon="4.81769">
        <ele>412.869</ele>
        <time>2015-05-24T07:15:36Z</time>
      </trkpt>
      <trkpt lat="45.85508" lon="4.81769">
        <ele>413.011</ele>
        <time>2015-05-24T07:15:39Z</time>
      </trkpt>
      <trkpt lat="45.85508" lon="4.81769">
        <ele>413.167</ele>
        <time>2015-05-24T07:15:41Z</time>
      </trkpt>
      <trkpt lat="45.85539" lon="4.81744">
        <ele>415.68</ele>
        <time>2015-05-24T07:15:57Z</time>
      </trkpt>
      <trkpt lat="45.85542" lon="4.81711">
        <ele>417.925</ele>
        <time>2015-05-24T07:16:15Z</time>
      </trkpt>
      <trkpt lat="45.85524" lon="4.81643">
        <ele>420.966</ele>
        <time>2015-05-24T07:16:32Z</time>
      </trkpt>
      <trkpt lat="45.85519" lon="4.81626">
        <ele>422.865</ele>
        <time>2015-05-24T07:16:38Z</time>
      </trkpt>
      <trkpt lat="45.85503" lon="4.81567">
        <ele>426.248</ele>
        <time>2015-05-24T07:16:56Z</time>
      </trkpt>
      <trkpt lat="45.85491" lon="4.81525">
        <ele>429.561</ele>
        <time>2015-05-24T07:17:09Z</time>
      </trkpt>
      <trkpt lat="45.85488" lon="4.81512">
        <ele>429.655</ele>
        <time>2015-05-24T07:17:13Z</time>
      </trkpt>
      <trkpt lat="45.85481" lon="4.81487">
        <ele>431.638</ele>
        <time>2015-05-24T07:17:21Z</time>
      </trkpt>
      <trkpt lat="45.85469" lon="4.81442">
        <ele>433.656</ele>
        <time>2015-05-24T07:17:34Z</time>
      </trkpt>
      <trkpt lat="45.85462" lon="4.8138">
        <ele>435.465</ele>
        <time>2015-05-24T07:17:51Z</time>
      </trkpt>
      <trkpt lat="45.85469" lon="4.81339">
        <ele>436.227</ele>
        <time>2015-05-24T07:18:03Z</time>
      </trkpt>
      <trkpt lat="45.85499" lon="4.81288">
        <ele>437.743</ele>
        <time>2015-05-24T07:18:17Z</time>
      </trkpt>
      <trkpt lat="45.85501" lon="4.81286">
        <ele>437.318</ele>
        <time>2015-05-24T07:18:32Z</time>
      </trkpt>
      <trkpt lat="45.85501" lon="4.81286">
        <ele>437.545</ele>
        <time>2015-05-24T07:19:12Z</time>
      </trkpt>
      <trkpt lat="45.85503" lon="4.81279">
        <ele>438.143</ele>
        <time>2015-05-24T07:19:16Z</time>
      </trkpt>
      <trkpt lat="45.85514" lon="4.81282">
        <ele>437.376</ele>
        <time>2015-05-24T07:19:21Z</time>
      </trkpt>
      <trkpt lat="45.85558" lon="4.81307">
        <ele>433.51</ele>
        <time>2015-05-24T07:19:31Z</time>
      </trkpt>
      <trkpt lat="45.85564" lon="4.8131">
        <ele>433.512</ele>
        <time>2015-05-24T07:19:32Z</time>
      </trkpt>
      <trkpt lat="45.85597" lon="4.81328">
        <ele>430.148</ele>
        <time>2015-05-24T07:19:38Z</time>
      </trkpt>
      <trkpt lat="45.85597" lon="4.81328">
        <ele>430.151</ele>
        <time>2015-05-24T07:19:39Z</time>
      </trkpt>
      <trkpt lat="45.85597" lon="4.81328">
        <ele>428.868</ele>
        <time>2015-05-24T07:19:41Z</time>
      </trkpt>
      <trkpt lat="45.8563" lon="4.81346">
        <ele>425.506</ele>
        <time>2015-05-24T07:19:45Z</time>
      </trkpt>
      <trkpt lat="45.85633" lon="4.81348">
        <ele>425.511</ele>
        <time>2015-05-24T07:19:46Z</time>
      </trkpt>
      <trkpt lat="45.85637" lon="4.8135">
        <ele>424.55</ele>
        <time>2015-05-24T07:19:47Z</time>
      </trkpt>
      <trkpt lat="45.85639" lon="4.81351">
        <ele>423.646</ele>
        <time>2015-05-24T07:19:50Z</time>
      </trkpt>
      <trkpt lat="45.85677" lon="4.81375">
        <ele>418.044</ele>
        <time>2015-05-24T07:19:54Z</time>
      </trkpt>
      <trkpt lat="45.85683" lon="4.81379">
        <ele>418.044</ele>
        <time>2015-05-24T07:19:55Z</time>
      </trkpt>
      <trkpt lat="45.85689" lon="4.81383">
        <ele>416.664</ele>
        <time>2015-05-24T07:19:56Z</time>
      </trkpt>
      <trkpt lat="45.857" lon="4.8139">
        <ele>413.411</ele>
        <time>2015-05-24T07:19:59Z</time>
      </trkpt>
      <trkpt lat="45.85702" lon="4.81391">
        <ele>413.419</ele>
        <time>2015-05-24T07:20:00Z</time>
      </trkpt>
      <trkpt lat="45.85705" lon="4.81392">
        <ele>412.151</ele>
        <time>2015-05-24T07:20:02Z</time>
      </trkpt>
      <trkpt lat="45.8572" lon="4.81397">
        <ele>410.428</ele>
        <time>2015-05-24T07:20:12Z</time>
      </trkpt>
      <trkpt lat="45.85729" lon="4.814">
        <ele>409.099</ele>
        <time>2015-05-24T07:20:21Z</time>
      </trkpt>
      <trkpt lat="45.85729" lon="4.814">
        <ele>404.631</ele>
        <time>2015-05-24T07:20:28Z</time>
      </trkpt>
      <trkpt lat="45.85729" lon="4.814">
        <ele>403.195</ele>
        <time>2015-05-24T07:20:30Z</time>
      </trkpt>
      <trkpt lat="45.85729" lon="4.814">
        <ele>402.293</ele>
        <time>2015-05-24T07:20:32Z</time>
      </trkpt>
      <trkpt lat="45.85782" lon="4.81431">
        <ele>400.059</ele>
        <time>2015-05-24T07:20:35Z</time>
      </trkpt>
      <trkpt lat="45.858" lon="4.81425">
        <ele>395.072</ele>
        <time>2015-05-24T07:20:37Z</time>
      </trkpt>
      <trkpt lat="45.85806" lon="4.81428">
        <ele>391.553</ele>
        <time>2015-05-24T07:20:38Z</time>
      </trkpt>
      <trkpt lat="45.85807" lon="4.81426">
        <ele>391.563</ele>
        <time>2015-05-24T07:20:39Z</time>
      </trkpt>
      <trkpt lat="45.85807" lon="4.81424">
        <ele>389.851</ele>
        <time>2015-05-24T07:20:41Z</time>
      </trkpt>
      <trkpt lat="45.85817" lon="4.81409">
        <ele>388.565</ele>
        <time>2015-05-24T07:20:59Z</time>
      </trkpt>
      <trkpt lat="45.85821" lon="4.81395">
        <ele>386.326</ele>
        <time>2015-05-24T07:21:02Z</time>
      </trkpt>
      <trkpt lat="45.85828" lon="4.81379">
        <ele>382.572</ele>
        <time>2015-05-24T07:21:06Z</time>
      </trkpt>
      <trkpt lat="45.8583" lon="4.81375">
        <ele>382.58</ele>
        <time>2015-05-24T07:21:07Z</time>
      </trkpt>
      <trkpt lat="45.85832" lon="4.81367">
        <ele>380.911</ele>
        <time>2015-05-24T07:21:09Z</time>
      </trkpt>
      <trkpt lat="45.85836" lon="4.81358">
        <ele>379.99</ele>
        <time>2015-05-24T07:21:11Z</time>
      </trkpt>
      <trkpt lat="45.85844" lon="4.81342">
        <ele>377.833</ele>
        <time>2015-05-24T07:21:14Z</time>
      </trkpt>
      <trkpt lat="45.85852" lon="4.81335">
        <ele>375.622</ele>
        <time>2015-05-24T07:21:16Z</time>
      </trkpt>
      <trkpt lat="45.85898" lon="4.81374">
        <ele>371.178</ele>
        <time>2015-05-24T07:21:20Z</time>
      </trkpt>
      <trkpt lat="45.85898" lon="4.81374">
        <ele>371.187</ele>
        <time>2015-05-24T07:21:21Z</time>
      </trkpt>
      <trkpt lat="45.85876" lon="4.81329">
        <ele>368.592</ele>
        <time>2015-05-24T07:21:23Z</time>
      </trkpt>
      <trkpt lat="45.85905" lon="4.81371">
        <ele>365.727</ele>
        <time>2015-05-24T07:21:41Z</time>
      </trkpt>
      <trkpt lat="45.85907" lon="4.81371">
        <ele>364.196</ele>
        <time>2015-05-24T07:21:42Z</time>
      </trkpt>
      <trkpt lat="45.85949" lon="4.81385">
        <ele>361.378</ele>
        <time>2015-05-24T07:21:49Z</time>
      </trkpt>
      <trkpt lat="45.85969" lon="4.81398">
        <ele>360.66</ele>
        <time>2015-05-24T07:21:53Z</time>
      </trkpt>
      <trkpt lat="45.86017" lon="4.81427">
        <ele>358.028</ele>
        <time>2015-05-24T07:22:03Z</time>
      </trkpt>
      <trkpt lat="45.86032" lon="4.81434">
        <ele>357.326</ele>
        <time>2015-05-24T07:22:06Z</time>
      </trkpt>
      <trkpt lat="45.86055" lon="4.81436">
        <ele>356.709</ele>
        <time>2015-05-24T07:22:11Z</time>
      </trkpt>
      <trkpt lat="45.86115" lon="4.81459">
        <ele>356.207</ele>
        <time>2015-05-24T07:22:22Z</time>
      </trkpt>
      <trkpt lat="45.86176" lon="4.81485">
        <ele>358.414</ele>
        <time>2015-05-24T07:22:37Z</time>
      </trkpt>
      <trkpt lat="45.86225" lon="4.81506">
        <ele>359.815</ele>
        <time>2015-05-24T07:22:50Z</time>
      </trkpt>
      <trkpt lat="45.86229" lon="4.81508">
        <ele>359.821</ele>
        <time>2015-05-24T07:22:51Z</time>
      </trkpt>
      <trkpt lat="45.86245" lon="4.81514">
        <ele>359.997</ele>
        <time>2015-05-24T07:22:55Z</time>
      </trkpt>
      <trkpt lat="45.86305" lon="4.81542">
        <ele>358.063</ele>
        <time>2015-05-24T07:23:07Z</time>
      </trkpt>
      <trkpt lat="45.86322" lon="4.81553">
        <ele>356.965</ele>
        <time>2015-05-24T07:23:10Z</time>
      </trkpt>
      <trkpt lat="45.86344" lon="4.81568">
        <ele>354.479</ele>
        <time>2015-05-24T07:23:13Z</time>
      </trkpt>
      <trkpt lat="45.86362" lon="4.81586">
        <ele>352.064</ele>
        <time>2015-05-24T07:23:16Z</time>
      </trkpt>
      <trkpt lat="45.86372" lon="4.81601">
        <ele>347.077</ele>
        <time>2015-05-24T07:23:18Z</time>
      </trkpt>
      <trkpt lat="45.86371" lon="4.81647">
        <ele>345.057</ele>
        <time>2015-05-24T07:23:21Z</time>
      </trkpt>
      <trkpt lat="45.86373" lon="4.81649">
        <ele>342.512</ele>
        <time>2015-05-24T07:23:23Z</time>
      </trkpt>
      <trkpt lat="45.86409" lon="4.81608">
        <ele>340.911</ele>
        <time>2015-05-24T07:23:26Z</time>
      </trkpt>
      <trkpt lat="45.86378" lon="4.81615">
        <ele>338.977</ele>
        <time>2015-05-24T07:23:28Z</time>
      </trkpt>
      <trkpt lat="45.86377" lon="4.81612">
        <ele>337.185</ele>
        <time>2015-05-24T07:23:30Z</time>
      </trkpt>
      <trkpt lat="45.8637" lon="4.81596">
        <ele>333.943</ele>
        <time>2015-05-24T07:23:33Z</time>
      </trkpt>
      <trkpt lat="45.8637" lon="4.81596">
        <ele>332.178</ele>
        <time>2015-05-24T07:23:34Z</time>
      </trkpt>
      <trkpt lat="45.8637" lon="4.81596">
        <ele>330.892</ele>
        <time>2015-05-24T07:23:37Z</time>
      </trkpt>
      <trkpt lat="45.8637" lon="4.81596">
        <ele>330.394</ele>
        <time>2015-05-24T07:23:40Z</time>
      </trkpt>
      <trkpt lat="45.86434" lon="4.8154">
        <ele>329.251</ele>
        <time>2015-05-24T07:23:49Z</time>
      </trkpt>
      <trkpt lat="45.86439" lon="4.81542">
        <ele>329.268</ele>
        <time>2015-05-24T07:23:51Z</time>
      </trkpt>
      <trkpt lat="45.86437" lon="4.8161">
        <ele>328.242</ele>
        <time>2015-05-24T07:23:54Z</time>
      </trkpt>
      <trkpt lat="45.86436" lon="4.81645">
        <ele>326.335</ele>
        <time>2015-05-24T07:23:58Z</time>
      </trkpt>
      <trkpt lat="45.86436" lon="4.81665">
        <ele>326.023</ele>
        <time>2015-05-24T07:24:00Z</time>
      </trkpt>
      <trkpt lat="45.86434" lon="4.817">
        <ele>322.7</ele>
        <time>2015-05-24T07:24:03Z</time>
      </trkpt>
      <trkpt lat="45.86431" lon="4.81724">
        <ele>321.05</ele>
        <time>2015-05-24T07:24:05Z</time>
      </trkpt>
      <trkpt lat="45.86429" lon="4.81746">
        <ele>318.705</ele>
        <time>2015-05-24T07:24:07Z</time>
      </trkpt>
      <trkpt lat="45.86427" lon="4.81757">
        <ele>316.946</ele>
        <time>2015-05-24T07:24:08Z</time>
      </trkpt>
      <trkpt lat="45.86426" lon="4.81775">
        <ele>314.548</ele>
        <time>2015-05-24T07:24:10Z</time>
      </trkpt>
      <trkpt lat="45.8643" lon="4.81784">
        <ele>312.735</ele>
        <time>2015-05-24T07:24:12Z</time>
      </trkpt>
      <trkpt lat="45.86433" lon="4.81789">
        <ele>309.878</ele>
        <time>2015-05-24T07:24:16Z</time>
      </trkpt>
      <trkpt lat="45.86456" lon="4.81799">
        <ele>309.071</ele>
        <time>2015-05-24T07:24:21Z</time>
      </trkpt>
      <trkpt lat="45.86477" lon="4.81818">
        <ele>305.947</ele>
        <time>2015-05-24T07:24:25Z</time>
      </trkpt>
      <trkpt lat="45.8649" lon="4.81829">
        <ele>304.898</ele>
        <time>2015-05-24T07:24:27Z</time>
      </trkpt>
      <trkpt lat="45.86514" lon="4.81835">
        <ele>303.936</ele>
        <time>2015-05-24T07:24:30Z</time>
      </trkpt>
      <trkpt lat="45.86539" lon="4.81843">
        <ele>300.81</ele>
        <time>2015-05-24T07:24:33Z</time>
      </trkpt>
      <trkpt lat="45.86547" lon="4.81846">
        <ele>298.991</ele>
        <time>2015-05-24T07:24:34Z</time>
      </trkpt>
      <trkpt lat="45.86578" lon="4.81834">
        <ele>295.642</ele>
        <time>2015-05-24T07:24:38Z</time>
      </trkpt>
      <trkpt lat="45.86585" lon="4.81829">
        <ele>293.856</ele>
        <time>2015-05-24T07:24:39Z</time>
      </trkpt>
      <trkpt lat="45.86592" lon="4.81805">
        <ele>291.296</ele>
        <time>2015-05-24T07:24:42Z</time>
      </trkpt>
      <trkpt lat="45.8659" lon="4.81785">
        <ele>289.262</ele>
        <time>2015-05-24T07:24:44Z</time>
      </trkpt>
      <trkpt lat="45.86587" lon="4.81765">
        <ele>288.478</ele>
        <time>2015-05-24T07:24:46Z</time>
      </trkpt>
      <trkpt lat="45.86584" lon="4.81703">
        <ele>286.841</ele>
        <time>2015-05-24T07:24:52Z</time>
      </trkpt>
      <trkpt lat="45.86584" lon="4.81684">
        <ele>285.94</ele>
        <time>2015-05-24T07:24:54Z</time>
      </trkpt>
      <trkpt lat="45.86585" lon="4.81672">
        <ele>284.283</ele>
        <time>2015-05-24T07:24:56Z</time>
      </trkpt>
      <trkpt lat="45.86585" lon="4.81672">
        <ele>282.725</ele>
        <time>2015-05-24T07:24:58Z</time>
      </trkpt>
      <trkpt lat="45.86585" lon="4.81673">
        <ele>280.324</ele>
        <time>2015-05-24T07:25:07Z</time>
      </trkpt>
      <trkpt lat="45.86602" lon="4.81699">
        <ele>279.113</ele>
        <time>2015-05-24T07:25:12Z</time>
      </trkpt>
      <trkpt lat="45.86615" lon="4.8173">
        <ele>273.738</ele>
        <time>2015-05-24T07:25:16Z</time>
      </trkpt>
      <trkpt lat="45.86618" lon="4.81734">
        <ele>273.742</ele>
        <time>2015-05-24T07:25:17Z</time>
      </trkpt>
      <trkpt lat="45.86622" lon="4.81742">
        <ele>271.082</ele>
        <time>2015-05-24T07:25:19Z</time>
      </trkpt>
      <trkpt lat="45.86625" lon="4.81748">
        <ele>270.206</ele>
        <time>2015-05-24T07:25:20Z</time>
      </trkpt>
      <trkpt lat="45.86636" lon="4.81766">
        <ele>268.241</ele>
        <time>2015-05-24T07:25:23Z</time>
      </trkpt>
      <trkpt lat="45.86651" lon="4.81791">
        <ele>265.962</ele>
        <time>2015-05-24T07:25:26Z</time>
      </trkpt>
      <trkpt lat="45.86662" lon="4.81811">
        <ele>263.664</ele>
        <time>2015-05-24T07:25:28Z</time>
      </trkpt>
      <trkpt lat="45.86672" lon="4.81827">
        <ele>260.209</ele>
        <time>2015-05-24T07:25:30Z</time>
      </trkpt>
      <trkpt lat="45.86687" lon="4.81849">
        <ele>257.859</ele>
        <time>2015-05-24T07:25:33Z</time>
      </trkpt>
      <trkpt lat="45.86698" lon="4.81862">
        <ele>255.184</ele>
        <time>2015-05-24T07:25:35Z</time>
      </trkpt>
      <trkpt lat="45.86716" lon="4.81819">
        <ele>249.775</ele>
        <time>2015-05-24T07:25:39Z</time>
      </trkpt>
      <trkpt lat="45.86716" lon="4.81819">
        <ele>249.788</ele>
        <time>2015-05-24T07:25:40Z</time>
      </trkpt>
      <trkpt lat="45.86716" lon="4.81819">
        <ele>248.634</ele>
        <time>2015-05-24T07:25:50Z</time>
      </trkpt>
      <trkpt lat="45.86728" lon="4.81845">
        <ele>249.093</ele>
        <time>2015-05-24T07:26:00Z</time>
      </trkpt>
      <trkpt lat="45.86728" lon="4.81843">
        <ele>248.903</ele>
        <time>2015-05-24T07:26:01Z</time>
      </trkpt>
      <trkpt lat="45.86716" lon="4.81819">
        <ele>248.377</ele>
        <time>2015-05-24T07:26:05Z</time>
      </trkpt>
      <trkpt lat="45.86716" lon="4.81819">
        <ele>248.125</ele>
        <time>2015-05-24T07:26:08Z</time>
      </trkpt>
      <trkpt lat="45.86701" lon="4.818">
        <ele>247.864</ele>
        <time>2015-05-24T07:26:15Z</time>
      </trkpt>
      <trkpt lat="45.86701" lon="4.818">
        <ele>247.891</ele>
        <time>2015-05-24T07:26:21Z</time>
      </trkpt>
      <trkpt lat="45.86703" lon="4.81803">
        <ele>247.451</ele>
        <time>2015-05-24T07:26:37Z</time>
      </trkpt>
      <trkpt lat="45.86703" lon="4.81803">
        <ele>247.829</ele>
        <time>2015-05-24T07:27:36Z</time>
      </trkpt>
      <trkpt lat="45.86703" lon="4.81803">
        <ele>247.628</ele>
        <time>2015-05-24T07:27:41Z</time>
      </trkpt>
      <trkpt lat="45.86703" lon="4.81803">
        <ele>248.167</ele>
        <time>2015-05-24T07:27:51Z</time>
      </trkpt>
      <trkpt lat="45.86703" lon="4.81803">
        <ele>248.242</ele>
        <time>2015-05-24T07:27:53Z</time>
      </trkpt>
      <trkpt lat="45.86695" lon="4.81788">
        <ele>248.132</ele>
        <time>2015-05-24T07:27:58Z</time>
      </trkpt>
      <trkpt lat="45.86692" lon="4.8178">
        <ele>249.105</ele>
        <time>2015-05-24T07:28:00Z</time>
      </trkpt>
      <trkpt lat="45.86673" lon="4.81733">
        <ele>249.545</ele>
        <time>2015-05-24T07:28:11Z</time>
      </trkpt>
      <trkpt lat="45.86664" lon="4.81709">
        <ele>249.89</ele>
        <time>2015-05-24T07:28:16Z</time>
      </trkpt>
      <trkpt lat="45.86653" lon="4.81672">
        <ele>250.467</ele>
        <time>2015-05-24T07:28:23Z</time>
      </trkpt>
      <trkpt lat="45.86647" lon="4.81659">
        <ele>250.37</ele>
        <time>2015-05-24T07:28:26Z</time>
      </trkpt>
      <trkpt lat="45.86626" lon="4.81612">
        <ele>251.077</ele>
        <time>2015-05-24T07:28:36Z</time>
      </trkpt>
      <trkpt lat="45.86632" lon="4.81626">
        <ele>250.624</ele>
        <time>2015-05-24T07:28:39Z</time>
      </trkpt>
      <trkpt lat="45.86642" lon="4.81648">
        <ele>246.382</ele>
        <time>2015-05-24T07:28:42Z</time>
      </trkpt>
      <trkpt lat="45.86648" lon="4.81662">
        <ele>244.854</ele>
        <time>2015-05-24T07:28:45Z</time>
      </trkpt>
      <trkpt lat="45.86652" lon="4.8167">
        <ele>243.573</ele>
        <time>2015-05-24T07:28:46Z</time>
      </trkpt>
      <trkpt lat="45.86658" lon="4.81687">
        <ele>238.904</ele>
        <time>2015-05-24T07:28:49Z</time>
      </trkpt>
      <trkpt lat="45.86661" lon="4.81698">
        <ele>238.915</ele>
        <time>2015-05-24T07:28:50Z</time>
      </trkpt>
      <trkpt lat="45.86664" lon="4.81709">
        <ele>236.67</ele>
        <time>2015-05-24T07:28:51Z</time>
      </trkpt>
      <trkpt lat="45.86685" lon="4.81763">
        <ele>235.115</ele>
        <time>2015-05-24T07:28:54Z</time>
      </trkpt>
      <trkpt lat="45.86709" lon="4.81811">
        <ele>233.481</ele>
        <time>2015-05-24T07:28:57Z</time>
      </trkpt>
      <trkpt lat="45.86716" lon="4.81819">
        <ele>232.071</ele>
        <time>2015-05-24T07:28:59Z</time>
      </trkpt>
      <trkpt lat="45.86801" lon="4.81745">
        <ele>231.582</ele>
        <time>2015-05-24T07:29:00Z</time>
      </trkpt>
      <trkpt lat="45.86743" lon="4.81849">
        <ele>231.899</ele>
        <time>2015-05-24T07:29:05Z</time>
      </trkpt>
      <trkpt lat="45.86751" lon="4.81858">
        <ele>231.527</ele>
        <time>2015-05-24T07:29:08Z</time>
      </trkpt>
      <trkpt lat="45.86778" lon="4.81887">
        <ele>231.384</ele>
        <time>2015-05-24T07:29:20Z</time>
      </trkpt>
      <trkpt lat="45.86817" lon="4.81927">
        <ele>232.73</ele>
        <time>2015-05-24T07:29:30Z</time>
      </trkpt>
      <trkpt lat="45.86835" lon="4.81942">
        <ele>231.636</ele>
        <time>2015-05-24T07:29:34Z</time>
      </trkpt>
      <trkpt lat="45.86864" lon="4.81878">
        <ele>228.835</ele>
        <time>2015-05-24T07:29:41Z</time>
      </trkpt>
      <trkpt lat="45.86864" lon="4.81878">
        <ele>228.931</ele>
        <time>2015-05-24T07:29:48Z</time>
      </trkpt>
      <trkpt lat="45.86867" lon="4.81885">
        <ele>230.251</ele>
        <time>2015-05-24T07:30:07Z</time>
      </trkpt>
      <trkpt lat="45.86867" lon="4.81885">
        <ele>229.51</ele>
        <time>2015-05-24T07:30:54Z</time>
      </trkpt>
      <trkpt lat="45.86865" lon="4.81881">
        <ele>231.545</ele>
        <time>2015-05-24T07:32:22Z</time>
      </trkpt>
      <trkpt lat="45.86847" lon="4.81842">
        <ele>231.893</ele>
        <time>2015-05-24T07:32:35Z</time>
      </trkpt>
      <trkpt lat="45.86821" lon="4.81786">
        <ele>233.7</ele>
        <time>2015-05-24T07:32:53Z</time>
      </trkpt>
      <trkpt lat="45.86813" lon="4.81769">
        <ele>236.879</ele>
        <time>2015-05-24T07:33:03Z</time>
      </trkpt>
      <trkpt lat="45.86823" lon="4.81747">
        <ele>238.988</ele>
        <time>2015-05-24T07:33:09Z</time>
      </trkpt>
      <trkpt lat="45.86822" lon="4.81721">
        <ele>242.341</ele>
        <time>2015-05-24T07:33:22Z</time>
      </trkpt>
      <trkpt lat="45.86824" lon="4.81689">
        <ele>245.816</ele>
        <time>2015-05-24T07:33:38Z</time>
      </trkpt>
      <trkpt lat="45.86828" lon="4.81667">
        <ele>249.086</ele>
        <time>2015-05-24T07:33:50Z</time>
      </trkpt>
      <trkpt lat="45.86829" lon="4.81665">
        <ele>249.084</ele>
        <time>2015-05-24T07:33:51Z</time>
      </trkpt>
      <trkpt lat="45.86831" lon="4.81641">
        <ele>252.255</ele>
        <time>2015-05-24T07:34:04Z</time>
      </trkpt>
      <trkpt lat="45.86832" lon="4.81621">
        <ele>255.274</ele>
        <time>2015-05-24T07:34:15Z</time>
      </trkpt>
      <trkpt lat="45.86833" lon="4.81592">
        <ele>258.536</ele>
        <time>2015-05-24T07:34:29Z</time>
      </trkpt>
      <trkpt lat="45.86831" lon="4.81562">
        <ele>261.914</ele>
        <time>2015-05-24T07:34:45Z</time>
      </trkpt>
      <trkpt lat="45.86828" lon="4.8153">
        <ele>264.938</ele>
        <time>2015-05-24T07:35:02Z</time>
      </trkpt>
      <trkpt lat="45.86824" lon="4.815">
        <ele>268.243</ele>
        <time>2015-05-24T07:35:18Z</time>
      </trkpt>
      <trkpt lat="45.86817" lon="4.81469">
        <ele>271.845</ele>
        <time>2015-05-24T07:35:34Z</time>
      </trkpt>
      <trkpt lat="45.86807" lon="4.81422">
        <ele>274.671</ele>
        <time>2015-05-24T07:35:54Z</time>
      </trkpt>
      <trkpt lat="45.86798" lon="4.81382">
        <ele>277.752</ele>
        <time>2015-05-24T07:36:09Z</time>
      </trkpt>
      <trkpt lat="45.86788" lon="4.81338">
        <ele>281.002</ele>
        <time>2015-05-24T07:36:27Z</time>
      </trkpt>
      <trkpt lat="45.86776" lon="4.81297">
        <ele>284.211</ele>
        <time>2015-05-24T07:36:45Z</time>
      </trkpt>
      <trkpt lat="45.86768" lon="4.8127">
        <ele>287.611</ele>
        <time>2015-05-24T07:36:57Z</time>
      </trkpt>
      <trkpt lat="45.86765" lon="4.8126">
        <ele>287.799</ele>
        <time>2015-05-24T07:37:01Z</time>
      </trkpt>
      <trkpt lat="45.86756" lon="4.81228">
        <ele>291.612</ele>
        <time>2015-05-24T07:37:16Z</time>
      </trkpt>
      <trkpt lat="45.86744" lon="4.81192">
        <ele>295.007</ele>
        <time>2015-05-24T07:37:32Z</time>
      </trkpt>
      <trkpt lat="45.86734" lon="4.81157">
        <ele>298.174</ele>
        <time>2015-05-24T07:37:48Z</time>
      </trkpt>
      <trkpt lat="45.86732" lon="4.81148">
        <ele>299.396</ele>
        <time>2015-05-24T07:37:52Z</time>
      </trkpt>
      <trkpt lat="45.86723" lon="4.81116">
        <ele>302.581</ele>
        <time>2015-05-24T07:38:07Z</time>
      </trkpt>
      <trkpt lat="45.86722" lon="4.81114">
        <ele>302.577</ele>
        <time>2015-05-24T07:38:08Z</time>
      </trkpt>
      <trkpt lat="45.86718" lon="4.811">
        <ele>304.653</ele>
        <time>2015-05-24T07:38:16Z</time>
      </trkpt>
      <trkpt lat="45.8671" lon="4.81062">
        <ele>308.257</ele>
        <time>2015-05-24T07:38:34Z</time>
      </trkpt>
      <trkpt lat="45.86709" lon="4.81058">
        <ele>308.916</ele>
        <time>2015-05-24T07:38:36Z</time>
      </trkpt>
      <trkpt lat="45.86703" lon="4.81036">
        <ele>312.149</ele>
        <time>2015-05-24T07:38:53Z</time>
      </trkpt>
      <trkpt lat="45.86687" lon="4.80984">
        <ele>315.406</ele>
        <time>2015-05-24T07:39:11Z</time>
      </trkpt>
      <trkpt lat="45.86674" lon="4.80953">
        <ele>318.81</ele>
        <time>2015-05-24T07:39:30Z</time>
      </trkpt>
      <trkpt lat="45.86674" lon="4.80952">
        <ele>319.309</ele>
        <time>2015-05-24T07:39:32Z</time>
      </trkpt>
      <trkpt lat="45.8667" lon="4.80947">
        <ele>319.72</ele>
        <time>2015-05-24T07:39:36Z</time>
      </trkpt>
      <trkpt lat="45.86664" lon="4.80943">
        <ele>320.115</ele>
        <time>2015-05-24T07:39:40Z</time>
      </trkpt>
      <trkpt lat="45.86642" lon="4.80932">
        <ele>323.87</ele>
        <time>2015-05-24T07:39:56Z</time>
      </trkpt>
      <trkpt lat="45.86612" lon="4.80935">
        <ele>325.375</ele>
        <time>2015-05-24T07:40:11Z</time>
      </trkpt>
      <trkpt lat="45.86602" lon="4.80937">
        <ele>326.072</ele>
        <time>2015-05-24T07:40:16Z</time>
      </trkpt>
      <trkpt lat="45.86562" lon="4.80937">
        <ele>328.644</ele>
        <time>2015-05-24T07:40:34Z</time>
      </trkpt>
      <trkpt lat="45.86533" lon="4.80926">
        <ele>330.496</ele>
        <time>2015-05-24T07:40:46Z</time>
      </trkpt>
      <trkpt lat="45.86495" lon="4.80898">
        <ele>332.982</ele>
        <time>2015-05-24T07:41:04Z</time>
      </trkpt>
      <trkpt lat="45.86479" lon="4.80885">
        <ele>334.202</ele>
        <time>2015-05-24T07:41:12Z</time>
      </trkpt>
      <trkpt lat="45.86454" lon="4.80858">
        <ele>337.513</ele>
        <time>2015-05-24T07:41:26Z</time>
      </trkpt>
      <trkpt lat="45.86437" lon="4.80836">
        <ele>340.112</ele>
        <time>2015-05-24T07:41:38Z</time>
      </trkpt>
      <trkpt lat="45.86419" lon="4.80811">
        <ele>343.853</ele>
        <time>2015-05-24T07:41:54Z</time>
      </trkpt>
      <trkpt lat="45.86418" lon="4.8081">
        <ele>346.283</ele>
        <time>2015-05-24T07:42:10Z</time>
      </trkpt>
      <trkpt lat="45.86418" lon="4.8081">
        <ele>346.772</ele>
        <time>2015-05-24T07:42:25Z</time>
      </trkpt>
      <trkpt lat="45.86403" lon="4.80781">
        <ele>348.241</ele>
        <time>2015-05-24T07:42:33Z</time>
      </trkpt>
      <trkpt lat="45.86406" lon="4.80751">
        <ele>350.889</ele>
        <time>2015-05-24T07:42:47Z</time>
      </trkpt>
      <trkpt lat="45.8641" lon="4.80734">
        <ele>354.29</ele>
        <time>2015-05-24T07:42:58Z</time>
      </trkpt>
      <trkpt lat="45.86419" lon="4.80704">
        <ele>356.616</ele>
        <time>2015-05-24T07:43:15Z</time>
      </trkpt>
      <trkpt lat="45.86421" lon="4.80678">
        <ele>359.493</ele>
        <time>2015-05-24T07:43:30Z</time>
      </trkpt>
      <trkpt lat="45.86415" lon="4.80642">
        <ele>360.911</ele>
        <time>2015-05-24T07:43:46Z</time>
      </trkpt>
      <trkpt lat="45.86413" lon="4.8063">
        <ele>363.937</ele>
        <time>2015-05-24T07:44:01Z</time>
      </trkpt>
      <trkpt lat="45.86413" lon="4.8063">
        <ele>364.45</ele>
        <time>2015-05-24T07:44:05Z</time>
      </trkpt>
      <trkpt lat="45.86399" lon="4.80583">
        <ele>366.305</ele>
        <time>2015-05-24T07:44:18Z</time>
      </trkpt>
      <trkpt lat="45.8639" lon="4.80543">
        <ele>369.163</ele>
        <time>2015-05-24T07:44:34Z</time>
      </trkpt>
      <trkpt lat="45.86383" lon="4.80523">
        <ele>372.645</ele>
        <time>2015-05-24T07:44:43Z</time>
      </trkpt>
      <trkpt lat="45.8638" lon="4.80514">
        <ele>373.701</ele>
        <time>2015-05-24T07:44:48Z</time>
      </trkpt>
      <trkpt lat="45.86367" lon="4.80475">
        <ele>377.054</ele>
        <time>2015-05-24T07:45:08Z</time>
      </trkpt>
      <trkpt lat="45.86364" lon="4.80466">
        <ele>378.649</ele>
        <time>2015-05-24T07:45:13Z</time>
      </trkpt>
      <trkpt lat="45.86358" lon="4.80446">
        <ele>381.877</ele>
        <time>2015-05-24T07:45:33Z</time>
      </trkpt>
      <trkpt lat="45.86342" lon="4.80397">
        <ele>385.168</ele>
        <time>2015-05-24T07:45:50Z</time>
      </trkpt>
      <trkpt lat="45.86335" lon="4.80363">
        <ele>387.908</ele>
        <time>2015-05-24T07:46:07Z</time>
      </trkpt>
      <trkpt lat="45.86333" lon="4.80349">
        <ele>388.74</ele>
        <time>2015-05-24T07:46:16Z</time>
      </trkpt>
      <trkpt lat="45.86313" lon="4.80312">
        <ele>391.443</ele>
        <time>2015-05-24T07:46:31Z</time>
      </trkpt>
      <trkpt lat="45.86303" lon="4.8029">
        <ele>394.645</ele>
        <time>2015-05-24T07:46:43Z</time>
      </trkpt>
      <trkpt lat="45.86295" lon="4.80265">
        <ele>397.651</ele>
        <time>2015-05-24T07:46:57Z</time>
      </trkpt>
      <trkpt lat="45.8629" lon="4.80227">
        <ele>400.739</ele>
        <time>2015-05-24T07:47:15Z</time>
      </trkpt>
      <trkpt lat="45.86282" lon="4.80205">
        <ele>404.105</ele>
        <time>2015-05-24T07:47:27Z</time>
      </trkpt>
      <trkpt lat="45.86268" lon="4.80181">
        <ele>406.853</ele>
        <time>2015-05-24T07:47:43Z</time>
      </trkpt>
      <trkpt lat="45.86264" lon="4.80168">
        <ele>409.93</ele>
        <time>2015-05-24T07:47:53Z</time>
      </trkpt>
      <trkpt lat="45.86259" lon="4.80141">
        <ele>413.694</ele>
        <time>2015-05-24T07:48:06Z</time>
      </trkpt>
      <trkpt lat="45.86258" lon="4.80139">
        <ele>413.972</ele>
        <time>2015-05-24T07:48:08Z</time>
      </trkpt>
      <trkpt lat="45.86251" lon="4.80116">
        <ele>417.84</ele>
        <time>2015-05-24T07:48:20Z</time>
      </trkpt>
      <trkpt lat="45.86246" lon="4.8009">
        <ele>420.945</ele>
        <time>2015-05-24T07:48:34Z</time>
      </trkpt>
      <trkpt lat="45.86244" lon="4.80069">
        <ele>422.47</ele>
        <time>2015-05-24T07:48:45Z</time>
      </trkpt>
      <trkpt lat="45.86243" lon="4.80038">
        <ele>426.402</ele>
        <time>2015-05-24T07:48:59Z</time>
      </trkpt>
      <trkpt lat="45.86244" lon="4.80018">
        <ele>429.56</ele>
        <time>2015-05-24T07:49:09Z</time>
      </trkpt>
      <trkpt lat="45.86244" lon="4.80016">
        <ele>429.834</ele>
        <time>2015-05-24T07:49:11Z</time>
      </trkpt>
      <trkpt lat="45.86244" lon="4.80016">
        <ele>430.828</ele>
        <time>2015-05-24T07:49:27Z</time>
      </trkpt>
      <trkpt lat="45.86244" lon="4.80016">
        <ele>430.464</ele>
        <time>2015-05-24T07:49:56Z</time>
      </trkpt>
      <trkpt lat="45.86244" lon="4.80016">
        <ele>431.182</ele>
        <time>2015-05-24T07:50:16Z</time>
      </trkpt>
      <trkpt lat="45.86244" lon="4.80016">
        <ele>430.863</ele>
        <time>2015-05-24T07:50:50Z</time>
      </trkpt>
      <trkpt lat="45.86211" lon="4.79992">
        <ele>433.826</ele>
        <time>2015-05-24T07:51:07Z</time>
      </trkpt>
      <trkpt lat="45.86189" lon="4.79987">
        <ele>435.76</ele>
        <time>2015-05-24T07:51:20Z</time>
      </trkpt>
      <trkpt lat="45.86186" lon="4.79986">
        <ele>435.986</ele>
        <time>2015-05-24T07:51:22Z</time>
      </trkpt>
      <trkpt lat="45.86188" lon="4.79986">
        <ele>437.722</ele>
        <time>2015-05-24T07:51:28Z</time>
      </trkpt>
      <trkpt lat="45.86211" lon="4.79962">
        <ele>439.559</ele>
        <time>2015-05-24T07:51:47Z</time>
      </trkpt>
      <trkpt lat="45.86212" lon="4.79961">
        <ele>439.674</ele>
        <time>2015-05-24T07:51:55Z</time>
      </trkpt>
      <trkpt lat="45.86218" lon="4.79921">
        <ele>443.145</ele>
        <time>2015-05-24T07:52:12Z</time>
      </trkpt>
      <trkpt lat="45.86244" lon="4.79902">
        <ele>444.36</ele>
        <time>2015-05-24T07:52:26Z</time>
      </trkpt>
      <trkpt lat="45.8628" lon="4.79873">
        <ele>447.508</ele>
        <time>2015-05-24T07:52:44Z</time>
      </trkpt>
      <trkpt lat="45.86322" lon="4.79854">
        <ele>448.706</ele>
        <time>2015-05-24T07:52:58Z</time>
      </trkpt>
      <trkpt lat="45.86392" lon="4.79859">
        <ele>449.674</ele>
        <time>2015-05-24T07:53:18Z</time>
      </trkpt>
      <trkpt lat="45.86465" lon="4.79894">
        <ele>452.37</ele>
        <time>2015-05-24T07:53:39Z</time>
      </trkpt>
      <trkpt lat="45.86532" lon="4.79911">
        <ele>454.799</ele>
        <time>2015-05-24T07:53:58Z</time>
      </trkpt>
      <trkpt lat="45.8658" lon="4.79901">
        <ele>457.556</ele>
        <time>2015-05-24T07:54:15Z</time>
      </trkpt>
      <trkpt lat="45.86582" lon="4.79899">
        <ele>456.693</ele>
        <time>2015-05-24T07:54:32Z</time>
      </trkpt>
      <trkpt lat="45.86582" lon="4.79899">
        <ele>456.431</ele>
        <time>2015-05-24T07:55:38Z</time>
      </trkpt>
      <trkpt lat="45.86583" lon="4.79898">
        <ele>457.556</ele>
        <time>2015-05-24T07:55:45Z</time>
      </trkpt>
      <trkpt lat="45.86611" lon="4.79866">
        <ele>456.699</ele>
        <time>2015-05-24T07:55:54Z</time>
      </trkpt>
      <trkpt lat="45.86617" lon="4.79855">
        <ele>456.4</ele>
        <time>2015-05-24T07:55:56Z</time>
      </trkpt>
      <trkpt lat="45.86637" lon="4.79812">
        <ele>454.012</ele>
        <time>2015-05-24T07:56:02Z</time>
      </trkpt>
      <trkpt lat="45.86644" lon="4.79796">
        <ele>453.341</ele>
        <time>2015-05-24T07:56:04Z</time>
      </trkpt>
      <trkpt lat="45.86661" lon="4.79752">
        <ele>450.152</ele>
        <time>2015-05-24T07:56:09Z</time>
      </trkpt>
      <trkpt lat="45.86664" lon="4.79743">
        <ele>449.636</ele>
        <time>2015-05-24T07:56:10Z</time>
      </trkpt>
      <trkpt lat="45.8667" lon="4.79693">
        <ele>448.486</ele>
        <time>2015-05-24T07:56:18Z</time>
      </trkpt>
      <trkpt lat="45.86669" lon="4.7969">
        <ele>448.613</ele>
        <time>2015-05-24T07:56:19Z</time>
      </trkpt>
      <trkpt lat="45.86659" lon="4.79653">
        <ele>450.418</ele>
        <time>2015-05-24T07:56:32Z</time>
      </trkpt>
      <trkpt lat="45.86657" lon="4.79646">
        <ele>451.755</ele>
        <time>2015-05-24T07:56:37Z</time>
      </trkpt>
      <trkpt lat="45.86654" lon="4.79635">
        <ele>453.764</ele>
        <time>2015-05-24T07:56:44Z</time>
      </trkpt>
      <trkpt lat="45.86652" lon="4.79621">
        <ele>455.217</ele>
        <time>2015-05-24T07:56:49Z</time>
      </trkpt>
      <trkpt lat="45.8665" lon="4.79609">
        <ele>456.919</ele>
        <time>2015-05-24T07:56:57Z</time>
      </trkpt>
      <trkpt lat="45.8665" lon="4.79609">
        <ele>457.599</ele>
        <time>2015-05-24T07:56:59Z</time>
      </trkpt>
      <trkpt lat="45.8665" lon="4.79609">
        <ele>457.612</ele>
        <time>2015-05-24T07:57:02Z</time>
      </trkpt>
      <trkpt lat="45.86633" lon="4.79583">
        <ele>460.852</ele>
        <time>2015-05-24T07:57:12Z</time>
      </trkpt>
      <trkpt lat="45.86622" lon="4.79552">
        <ele>465.262</ele>
        <time>2015-05-24T07:57:31Z</time>
      </trkpt>
      <trkpt lat="45.86608" lon="4.79522">
        <ele>467.365</ele>
        <time>2015-05-24T07:57:43Z</time>
      </trkpt>
      <trkpt lat="45.86604" lon="4.79517">
        <ele>467.711</ele>
        <time>2015-05-24T07:57:46Z</time>
      </trkpt>
      <trkpt lat="45.86599" lon="4.79512">
        <ele>468.38</ele>
        <time>2015-05-24T07:57:48Z</time>
      </trkpt>
      <trkpt lat="45.86586" lon="4.79499">
        <ele>471.391</ele>
        <time>2015-05-24T07:58:01Z</time>
      </trkpt>
      <trkpt lat="45.86582" lon="4.79495">
        <ele>471.72</ele>
        <time>2015-05-24T07:58:13Z</time>
      </trkpt>
      <trkpt lat="45.86573" lon="4.79485">
        <ele>473.077</ele>
        <time>2015-05-24T07:58:26Z</time>
      </trkpt>
      <trkpt lat="45.86556" lon="4.79466">
        <ele>474.881</ele>
        <time>2015-05-24T07:58:40Z</time>
      </trkpt>
      <trkpt lat="45.86552" lon="4.79462">
        <ele>475.79</ele>
        <time>2015-05-24T07:58:43Z</time>
      </trkpt>
      <trkpt lat="45.86546" lon="4.79455">
        <ele>475.766</ele>
        <time>2015-05-24T07:58:47Z</time>
      </trkpt>
      <trkpt lat="45.86546" lon="4.79455">
        <ele>476.239</ele>
        <time>2015-05-24T07:58:49Z</time>
      </trkpt>
      <trkpt lat="45.86524" lon="4.79432">
        <ele>478.973</ele>
        <time>2015-05-24T07:59:04Z</time>
      </trkpt>
      <trkpt lat="45.86503" lon="4.79413">
        <ele>480.392</ele>
        <time>2015-05-24T07:59:18Z</time>
      </trkpt>
      <trkpt lat="45.86479" lon="4.79389">
        <ele>482.867</ele>
        <time>2015-05-24T07:59:31Z</time>
      </trkpt>
      <trkpt lat="45.86455" lon="4.79359">
        <ele>486.268</ele>
        <time>2015-05-24T07:59:46Z</time>
      </trkpt>
      <trkpt lat="45.86452" lon="4.79356">
        <ele>486.74</ele>
        <time>2015-05-24T07:59:51Z</time>
      </trkpt>
      <trkpt lat="45.86425" lon="4.79324">
        <ele>489.96</ele>
        <time>2015-05-24T08:00:07Z</time>
      </trkpt>
      <trkpt lat="45.86408" lon="4.79303">
        <ele>491.446</ele>
        <time>2015-05-24T08:00:16Z</time>
      </trkpt>
      <trkpt lat="45.86398" lon="4.7929">
        <ele>493.435</ele>
        <time>2015-05-24T08:00:28Z</time>
      </trkpt>
      <trkpt lat="45.86391" lon="4.7928">
        <ele>494.414</ele>
        <time>2015-05-24T08:00:31Z</time>
      </trkpt>
      <trkpt lat="45.86384" lon="4.79273">
        <ele>495.353</ele>
        <time>2015-05-24T08:00:35Z</time>
      </trkpt>
      <trkpt lat="45.8637" lon="4.79258">
        <ele>497.112</ele>
        <time>2015-05-24T08:00:44Z</time>
      </trkpt>
      <trkpt lat="45.86353" lon="4.79239">
        <ele>499.486</ele>
        <time>2015-05-24T08:00:59Z</time>
      </trkpt>
      <trkpt lat="45.86329" lon="4.79216">
        <ele>502.504</ele>
        <time>2015-05-24T08:01:14Z</time>
      </trkpt>
      <trkpt lat="45.86305" lon="4.79192">
        <ele>505.258</ele>
        <time>2015-05-24T08:01:27Z</time>
      </trkpt>
      <trkpt lat="45.8629" lon="4.79174">
        <ele>505.464</ele>
        <time>2015-05-24T08:01:35Z</time>
      </trkpt>
      <trkpt lat="45.86278" lon="4.79161">
        <ele>505.65</ele>
        <time>2015-05-24T08:01:40Z</time>
      </trkpt>
      <trkpt lat="45.8626" lon="4.79137">
        <ele>507.458</ele>
        <time>2015-05-24T08:01:50Z</time>
      </trkpt>
      <trkpt lat="45.86235" lon="4.79093">
        <ele>509.244</ele>
        <time>2015-05-24T08:02:05Z</time>
      </trkpt>
      <trkpt lat="45.86232" lon="4.79087">
        <ele>509.684</ele>
        <time>2015-05-24T08:02:08Z</time>
      </trkpt>
      <trkpt lat="45.86231" lon="4.79085">
        <ele>510.942</ele>
        <time>2015-05-24T08:02:14Z</time>
      </trkpt>
      <trkpt lat="45.86222" lon="4.7907">
        <ele>512.896</ele>
        <time>2015-05-24T08:02:21Z</time>
      </trkpt>
      <trkpt lat="45.86203" lon="4.79041">
        <ele>516.177</ele>
        <time>2015-05-24T08:02:34Z</time>
      </trkpt>
      <trkpt lat="45.86184" lon="4.79011">
        <ele>517.559</ele>
        <time>2015-05-24T08:02:47Z</time>
      </trkpt>
      <trkpt lat="45.86179" lon="4.79004">
        <ele>518.791</ele>
        <time>2015-05-24T08:02:52Z</time>
      </trkpt>
      <trkpt lat="45.86175" lon="4.78996">
        <ele>518.682</ele>
        <time>2015-05-24T08:03:00Z</time>
      </trkpt>
      <trkpt lat="45.86119" lon="4.7893">
        <ele>518.987</ele>
        <time>2015-05-24T08:03:12Z</time>
      </trkpt>
      <trkpt lat="45.86088" lon="4.789">
        <ele>520.672</ele>
        <time>2015-05-24T08:03:25Z</time>
      </trkpt>
      <trkpt lat="45.86055" lon="4.78884">
        <ele>524.282</ele>
        <time>2015-05-24T08:03:39Z</time>
      </trkpt>
      <trkpt lat="45.86049" lon="4.7888">
        <ele>524.107</ele>
        <time>2015-05-24T08:03:43Z</time>
      </trkpt>
      <trkpt lat="45.86029" lon="4.78869">
        <ele>525.386</ele>
        <time>2015-05-24T08:03:51Z</time>
      </trkpt>
      <trkpt lat="45.86012" lon="4.78859">
        <ele>525.656</ele>
        <time>2015-05-24T08:03:56Z</time>
      </trkpt>
      <trkpt lat="45.85992" lon="4.78847">
        <ele>526.761</ele>
        <time>2015-05-24T08:04:03Z</time>
      </trkpt>
      <trkpt lat="45.85978" lon="4.78839">
        <ele>528.178</ele>
        <time>2015-05-24T08:04:09Z</time>
      </trkpt>
      <trkpt lat="45.85955" lon="4.78829">
        <ele>530.281</ele>
        <time>2015-05-24T08:04:19Z</time>
      </trkpt>
      <trkpt lat="45.85934" lon="4.78826">
        <ele>532.874</ele>
        <time>2015-05-24T08:04:30Z</time>
      </trkpt>
      <trkpt lat="45.8592" lon="4.78824">
        <ele>534.859</ele>
        <time>2015-05-24T08:04:44Z</time>
      </trkpt>
      <trkpt lat="45.85905" lon="4.78821">
        <ele>536.572</ele>
        <time>2015-05-24T08:04:54Z</time>
      </trkpt>
      <trkpt lat="45.85889" lon="4.78818">
        <ele>538.457</ele>
        <time>2015-05-24T08:05:05Z</time>
      </trkpt>
      <trkpt lat="45.85878" lon="4.78818">
        <ele>539.479</ele>
        <time>2015-05-24T08:05:11Z</time>
      </trkpt>
      <trkpt lat="45.85873" lon="4.78818">
        <ele>540.205</ele>
        <time>2015-05-24T08:05:14Z</time>
      </trkpt>
      <trkpt lat="45.85848" lon="4.78824">
        <ele>540.707</ele>
        <time>2015-05-24T08:05:23Z</time>
      </trkpt>
      <trkpt lat="45.85838" lon="4.78821">
        <ele>539.952</ele>
        <time>2015-05-24T08:05:26Z</time>
      </trkpt>
      <trkpt lat="45.85823" lon="4.78807">
        <ele>537.916</ele>
        <time>2015-05-24T08:05:31Z</time>
      </trkpt>
      <trkpt lat="45.85818" lon="4.78805">
        <ele>537.533</ele>
        <time>2015-05-24T08:05:33Z</time>
      </trkpt>
      <trkpt lat="45.85782" lon="4.78785">
        <ele>538.532</ele>
        <time>2015-05-24T08:05:45Z</time>
      </trkpt>
      <trkpt lat="45.85763" lon="4.78775">
        <ele>539.52</ele>
        <time>2015-05-24T08:05:53Z</time>
      </trkpt>
      <trkpt lat="45.85752" lon="4.78769">
        <ele>539.738</ele>
        <time>2015-05-24T08:05:57Z</time>
      </trkpt>
      <trkpt lat="45.85739" lon="4.7876">
        <ele>541.906</ele>
        <time>2015-05-24T08:06:03Z</time>
      </trkpt>
      <trkpt lat="45.85717" lon="4.78732">
        <ele>543.931</ele>
        <time>2015-05-24T08:06:16Z</time>
      </trkpt>
      <trkpt lat="45.85711" lon="4.78724">
        <ele>544.853</ele>
        <time>2015-05-24T08:06:20Z</time>
      </trkpt>
      <trkpt lat="45.85688" lon="4.78693">
        <ele>546.421</ele>
        <time>2015-05-24T08:06:34Z</time>
      </trkpt>
      <trkpt lat="45.85648" lon="4.78658">
        <ele>547.964</ele>
        <time>2015-05-24T08:06:49Z</time>
      </trkpt>
      <trkpt lat="45.85628" lon="4.78645">
        <ele>548.349</ele>
        <time>2015-05-24T08:06:56Z</time>
      </trkpt>
      <trkpt lat="45.85587" lon="4.78614">
        <ele>547.596</ele>
        <time>2015-05-24T08:07:09Z</time>
      </trkpt>
      <trkpt lat="45.85545" lon="4.7859">
        <ele>548.817</ele>
        <time>2015-05-24T08:07:23Z</time>
      </trkpt>
      <trkpt lat="45.85504" lon="4.78564">
        <ele>550.211</ele>
        <time>2015-05-24T08:07:36Z</time>
      </trkpt>
      <trkpt lat="45.85443" lon="4.78491">
        <ele>553.367</ele>
        <time>2015-05-24T08:07:59Z</time>
      </trkpt>
      <trkpt lat="45.85391" lon="4.78426">
        <ele>556.225</ele>
        <time>2015-05-24T08:08:19Z</time>
      </trkpt>
      <trkpt lat="45.85349" lon="4.78366">
        <ele>556.914</ele>
        <time>2015-05-24T08:08:36Z</time>
      </trkpt>
      <trkpt lat="45.8533" lon="4.78333">
        <ele>557.263</ele>
        <time>2015-05-24T08:08:48Z</time>
      </trkpt>
      <trkpt lat="45.85313" lon="4.78303">
        <ele>558.231</ele>
        <time>2015-05-24T08:08:55Z</time>
      </trkpt>
      <trkpt lat="45.85275" lon="4.78271">
        <ele>559.209</ele>
        <time>2015-05-24T08:09:05Z</time>
      </trkpt>
      <trkpt lat="45.85248" lon="4.78231">
        <ele>560.409</ele>
        <time>2015-05-24T08:09:16Z</time>
      </trkpt>
      <trkpt lat="45.85229" lon="4.78203">
        <ele>559.955</ele>
        <time>2015-05-24T08:09:23Z</time>
      </trkpt>
      <trkpt lat="45.85202" lon="4.78156">
        <ele>560.962</ele>
        <time>2015-05-24T08:09:34Z</time>
      </trkpt>
      <trkpt lat="45.85178" lon="4.78111">
        <ele>561.877</ele>
        <time>2015-05-24T08:09:44Z</time>
      </trkpt>
      <trkpt lat="45.85162" lon="4.78076">
        <ele>563.75</ele>
        <time>2015-05-24T08:09:53Z</time>
      </trkpt>
      <trkpt lat="45.85146" lon="4.78035">
        <ele>566.98</ele>
        <time>2015-05-24T08:10:04Z</time>
      </trkpt>
      <trkpt lat="45.85131" lon="4.7799">
        <ele>567.697</ele>
        <time>2015-05-24T08:10:15Z</time>
      </trkpt>
      <trkpt lat="45.85119" lon="4.77938">
        <ele>571.197</ele>
        <time>2015-05-24T08:10:29Z</time>
      </trkpt>
      <trkpt lat="45.85119" lon="4.77935">
        <ele>571.196</ele>
        <time>2015-05-24T08:10:30Z</time>
      </trkpt>
      <trkpt lat="45.85117" lon="4.77926">
        <ele>572.511</ele>
        <time>2015-05-24T08:10:33Z</time>
      </trkpt>
      <trkpt lat="45.85098" lon="4.7789">
        <ele>574.05</ele>
        <time>2015-05-24T08:10:43Z</time>
      </trkpt>
      <trkpt lat="45.85098" lon="4.77873">
        <ele>573.66</ele>
        <time>2015-05-24T08:10:46Z</time>
      </trkpt>
      <trkpt lat="45.85103" lon="4.77845">
        <ele>572.563</ele>
        <time>2015-05-24T08:10:50Z</time>
      </trkpt>
      <trkpt lat="45.85105" lon="4.77828">
        <ele>571.981</ele>
        <time>2015-05-24T08:10:52Z</time>
      </trkpt>
      <trkpt lat="45.85105" lon="4.77805">
        <ele>569.967</ele>
        <time>2015-05-24T08:10:56Z</time>
      </trkpt>
      <trkpt lat="45.85103" lon="4.77774">
        <ele>567.61</ele>
        <time>2015-05-24T08:11:00Z</time>
      </trkpt>
      <trkpt lat="45.85099" lon="4.77748">
        <ele>566.454</ele>
        <time>2015-05-24T08:11:03Z</time>
      </trkpt>
      <trkpt lat="45.85093" lon="4.77726">
        <ele>565.171</ele>
        <time>2015-05-24T08:11:05Z</time>
      </trkpt>
      <trkpt lat="45.85085" lon="4.77706">
        <ele>563.625</ele>
        <time>2015-05-24T08:11:07Z</time>
      </trkpt>
      <trkpt lat="45.85081" lon="4.77697">
        <ele>563.134</ele>
        <time>2015-05-24T08:11:08Z</time>
      </trkpt>
      <trkpt lat="45.85049" lon="4.77638">
        <ele>560.336</ele>
        <time>2015-05-24T08:11:14Z</time>
      </trkpt>
      <trkpt lat="45.85021" lon="4.77628">
        <ele>558.667</ele>
        <time>2015-05-24T08:11:22Z</time>
      </trkpt>
      <trkpt lat="45.84988" lon="4.77621">
        <ele>559.396</ele>
        <time>2015-05-24T08:11:30Z</time>
      </trkpt>
      <trkpt lat="45.84967" lon="4.77617">
        <ele>558.69</ele>
        <time>2015-05-24T08:11:35Z</time>
      </trkpt>
      <trkpt lat="45.84931" lon="4.77616">
        <ele>558.25</ele>
        <time>2015-05-24T08:11:43Z</time>
      </trkpt>
      <trkpt lat="45.84871" lon="4.77618">
        <ele>557.159</ele>
        <time>2015-05-24T08:11:53Z</time>
      </trkpt>
      <trkpt lat="45.8485" lon="4.77619">
        <ele>556.529</ele>
        <time>2015-05-24T08:11:56Z</time>
      </trkpt>
      <trkpt lat="45.84811" lon="4.77622">
        <ele>553.242</ele>
        <time>2015-05-24T08:12:05Z</time>
      </trkpt>
      <trkpt lat="45.84802" lon="4.77622">
        <ele>552.782</ele>
        <time>2015-05-24T08:12:07Z</time>
      </trkpt>
      <trkpt lat="45.84759" lon="4.77616">
        <ele>553.217</ele>
        <time>2015-05-24T08:12:15Z</time>
      </trkpt>
      <trkpt lat="45.84747" lon="4.77613">
        <ele>552.303</ele>
        <time>2015-05-24T08:12:18Z</time>
      </trkpt>
      <trkpt lat="45.84739" lon="4.77611">
        <ele>552.263</ele>
        <time>2015-05-24T08:12:21Z</time>
      </trkpt>
      <trkpt lat="45.84701" lon="4.77572">
        <ele>553.132</ele>
        <time>2015-05-24T08:12:34Z</time>
      </trkpt>
      <trkpt lat="45.84698" lon="4.77568">
        <ele>553.7</ele>
        <time>2015-05-24T08:12:37Z</time>
      </trkpt>
      <trkpt lat="45.84696" lon="4.77582">
        <ele>554.007</ele>
        <time>2015-05-24T08:12:43Z</time>
      </trkpt>
      <trkpt lat="45.84718" lon="4.7764">
        <ele>557.092</ele>
        <time>2015-05-24T08:12:58Z</time>
      </trkpt>
      <trkpt lat="45.84725" lon="4.77712">
        <ele>560.683</ele>
        <time>2015-05-24T08:13:16Z</time>
      </trkpt>
      <trkpt lat="45.84706" lon="4.77766">
        <ele>563.945</ele>
        <time>2015-05-24T08:13:30Z</time>
      </trkpt>
      <trkpt lat="45.84688" lon="4.77813">
        <ele>567.169</ele>
        <time>2015-05-24T08:13:42Z</time>
      </trkpt>
      <trkpt lat="45.84657" lon="4.77869">
        <ele>571.023</ele>
        <time>2015-05-24T08:13:58Z</time>
      </trkpt>
      <trkpt lat="45.84654" lon="4.77872">
        <ele>571.027</ele>
        <time>2015-05-24T08:13:59Z</time>
      </trkpt>
      <trkpt lat="45.84646" lon="4.77917">
        <ele>572.886</ele>
        <time>2015-05-24T08:14:10Z</time>
      </trkpt>
      <trkpt lat="45.84654" lon="4.77924">
        <ele>573.532</ele>
        <time>2015-05-24T08:14:13Z</time>
      </trkpt>
      <trkpt lat="45.84674" lon="4.7791">
        <ele>575.081</ele>
        <time>2015-05-24T08:14:19Z</time>
      </trkpt>
      <trkpt lat="45.84691" lon="4.77872">
        <ele>577.344</ele>
        <time>2015-05-24T08:14:27Z</time>
      </trkpt>
      <trkpt lat="45.84704" lon="4.77842">
        <ele>578.35</ele>
        <time>2015-05-24T08:14:33Z</time>
      </trkpt>
      <trkpt lat="45.84734" lon="4.77835">
        <ele>580.564</ele>
        <time>2015-05-24T08:14:42Z</time>
      </trkpt>
      <trkpt lat="45.84735" lon="4.77866">
        <ele>581.079</ele>
        <time>2015-05-24T08:14:47Z</time>
      </trkpt>
      <trkpt lat="45.84714" lon="4.77907">
        <ele>584.454</ele>
        <time>2015-05-24T08:14:56Z</time>
      </trkpt>
      <trkpt lat="45.84689" lon="4.77966">
        <ele>587.863</ele>
        <time>2015-05-24T08:15:09Z</time>
      </trkpt>
      <trkpt lat="45.84686" lon="4.77973">
        <ele>588.147</ele>
        <time>2015-05-24T08:15:20Z</time>
      </trkpt>
      <trkpt lat="45.84686" lon="4.77973">
        <ele>588.544</ele>
        <time>2015-05-24T08:15:41Z</time>
      </trkpt>
      <trkpt lat="45.84686" lon="4.77973">
        <ele>588.349</ele>
        <time>2015-05-24T08:15:59Z</time>
      </trkpt>
      <trkpt lat="45.84686" lon="4.77973">
        <ele>586.854</ele>
        <time>2015-05-24T08:16:21Z</time>
      </trkpt>
      <trkpt lat="45.84686" lon="4.77973">
        <ele>589.96</ele>
        <time>2015-05-24T08:20:29Z</time>
      </trkpt>
      <trkpt lat="45.84686" lon="4.77973">
        <ele>590.026</ele>
        <time>2015-05-24T08:21:08Z</time>
      </trkpt>
      <trkpt lat="45.84686" lon="4.77973">
        <ele>590.758</ele>
        <time>2015-05-24T08:21:14Z</time>
      </trkpt>
      <trkpt lat="45.84686" lon="4.77973">
        <ele>590.198</ele>
        <time>2015-05-24T08:21:36Z</time>
      </trkpt>
      <trkpt lat="45.84678" lon="4.78005">
        <ele>590.175</ele>
        <time>2015-05-24T08:21:38Z</time>
      </trkpt>
      <trkpt lat="45.84675" lon="4.78021">
        <ele>591.163</ele>
        <time>2015-05-24T08:21:53Z</time>
      </trkpt>
      <trkpt lat="45.84673" lon="4.78033">
        <ele>591.006</ele>
        <time>2015-05-24T08:22:02Z</time>
      </trkpt>
      <trkpt lat="45.84703" lon="4.78029">
        <ele>589.646</ele>
        <time>2015-05-24T08:22:07Z</time>
      </trkpt>
      <trkpt lat="45.84703" lon="4.78029">
        <ele>584.322</ele>
        <time>2015-05-24T08:22:09Z</time>
      </trkpt>
      <trkpt lat="45.84703" lon="4.78029">
        <ele>584.324</ele>
        <time>2015-05-24T08:22:10Z</time>
      </trkpt>
      <trkpt lat="45.84711" lon="4.78106">
        <ele>580.599</ele>
        <time>2015-05-24T08:22:11Z</time>
      </trkpt>
      <trkpt lat="45.84716" lon="4.78118">
        <ele>580.602</ele>
        <time>2015-05-24T08:22:12Z</time>
      </trkpt>
      <trkpt lat="45.84721" lon="4.78131">
        <ele>577.535</ele>
        <time>2015-05-24T08:22:13Z</time>
      </trkpt>
      <trkpt lat="45.84723" lon="4.7814">
        <ele>577.538</ele>
        <time>2015-05-24T08:22:14Z</time>
      </trkpt>
      <trkpt lat="45.84717" lon="4.7816">
        <ele>571.779</ele>
        <time>2015-05-24T08:22:17Z</time>
      </trkpt>
      <trkpt lat="45.84714" lon="4.78165">
        <ele>569.824</ele>
        <time>2015-05-24T08:22:18Z</time>
      </trkpt>
      <trkpt lat="45.84709" lon="4.78183">
        <ele>569.401</ele>
        <time>2015-05-24T08:22:21Z</time>
      </trkpt>
      <trkpt lat="45.84704" lon="4.78217">
        <ele>566.908</ele>
        <time>2015-05-24T08:22:25Z</time>
      </trkpt>
      <trkpt lat="45.84705" lon="4.78248">
        <ele>564.218</ele>
        <time>2015-05-24T08:22:28Z</time>
      </trkpt>
      <trkpt lat="45.84702" lon="4.78267">
        <ele>561.861</ele>
        <time>2015-05-24T08:22:30Z</time>
      </trkpt>
      <trkpt lat="45.84696" lon="4.78297">
        <ele>559.467</ele>
        <time>2015-05-24T08:22:33Z</time>
      </trkpt>
      <trkpt lat="45.84692" lon="4.78311">
        <ele>557.993</ele>
        <time>2015-05-24T08:22:34Z</time>
      </trkpt>
      <trkpt lat="45.84682" lon="4.7834">
        <ele>555.103</ele>
        <time>2015-05-24T08:22:37Z</time>
      </trkpt>
      <trkpt lat="45.84671" lon="4.78349">
        <ele>551.506</ele>
        <time>2015-05-24T08:22:39Z</time>
      </trkpt>
      <trkpt lat="45.84658" lon="4.78351">
        <ele>550.477</ele>
        <time>2015-05-24T08:22:47Z</time>
      </trkpt>
      <trkpt lat="45.84658" lon="4.7835">
        <ele>551.308</ele>
        <time>2015-05-24T08:23:46Z</time>
      </trkpt>
      <trkpt lat="45.84654" lon="4.78367">
        <ele>549.609</ele>
        <time>2015-05-24T08:23:50Z</time>
      </trkpt>
      <trkpt lat="45.84651" lon="4.78379">
        <ele>548.255</ele>
        <time>2015-05-24T08:23:52Z</time>
      </trkpt>
      <trkpt lat="45.84647" lon="4.78385">
        <ele>545.933</ele>
        <time>2015-05-24T08:23:54Z</time>
      </trkpt>
      <trkpt lat="45.84615" lon="4.78404">
        <ele>544.867</ele>
        <time>2015-05-24T08:24:03Z</time>
      </trkpt>
      <trkpt lat="45.84608" lon="4.78418">
        <ele>544.8</ele>
        <time>2015-05-24T08:24:06Z</time>
      </trkpt>
      <trkpt lat="45.8462" lon="4.78508">
        <ele>541.293</ele>
        <time>2015-05-24T08:24:12Z</time>
      </trkpt>
      <trkpt lat="45.84613" lon="4.78514">
        <ele>537.035</ele>
        <time>2015-05-24T08:24:14Z</time>
      </trkpt>
      <trkpt lat="45.84597" lon="4.78524">
        <ele>534.892</ele>
        <time>2015-05-24T08:24:17Z</time>
      </trkpt>
      <trkpt lat="45.84585" lon="4.78529">
        <ele>532.643</ele>
        <time>2015-05-24T08:24:19Z</time>
      </trkpt>
      <trkpt lat="45.84579" lon="4.7853">
        <ele>527.876</ele>
        <time>2015-05-24T08:24:21Z</time>
      </trkpt>
      <trkpt lat="45.84578" lon="4.78531">
        <ele>527.879</ele>
        <time>2015-05-24T08:24:22Z</time>
      </trkpt>
      <trkpt lat="45.84576" lon="4.78531">
        <ele>525.268</ele>
        <time>2015-05-24T08:24:23Z</time>
      </trkpt>
      <trkpt lat="45.84573" lon="4.78532">
        <ele>524.02</ele>
        <time>2015-05-24T08:24:26Z</time>
      </trkpt>
      <trkpt lat="45.84573" lon="4.78532">
        <ele>524.88</ele>
        <time>2015-05-24T08:24:42Z</time>
      </trkpt>
      <trkpt lat="45.84573" lon="4.78532">
        <ele>525.05</ele>
        <time>2015-05-24T08:25:01Z</time>
      </trkpt>
      <trkpt lat="45.84575" lon="4.78531">
        <ele>524.747</ele>
        <time>2015-05-24T08:25:05Z</time>
      </trkpt>
      <trkpt lat="45.84576" lon="4.78531">
        <ele>524.344</ele>
        <time>2015-05-24T08:25:17Z</time>
      </trkpt>
      <trkpt lat="45.84576" lon="4.78531">
        <ele>523.621</ele>
        <time>2015-05-24T08:25:31Z</time>
      </trkpt>
      <trkpt lat="45.84572" lon="4.78532">
        <ele>524.71</ele>
        <time>2015-05-24T08:25:35Z</time>
      </trkpt>
      <trkpt lat="45.84541" lon="4.78522">
        <ele>526.543</ele>
        <time>2015-05-24T08:25:48Z</time>
      </trkpt>
      <trkpt lat="45.84495" lon="4.78464">
        <ele>529.128</ele>
        <time>2015-05-24T08:26:05Z</time>
      </trkpt>
      <trkpt lat="45.84454" lon="4.78412">
        <ele>532.294</ele>
        <time>2015-05-24T08:26:21Z</time>
      </trkpt>
      <trkpt lat="45.84412" lon="4.78381">
        <ele>535.47</ele>
        <time>2015-05-24T08:26:35Z</time>
      </trkpt>
      <trkpt lat="45.84374" lon="4.78339">
        <ele>538.612</ele>
        <time>2015-05-24T08:26:49Z</time>
      </trkpt>
      <trkpt lat="45.84328" lon="4.78323">
        <ele>541.093</ele>
        <time>2015-05-24T08:27:04Z</time>
      </trkpt>
      <trkpt lat="45.84283" lon="4.78324">
        <ele>544.549</ele>
        <time>2015-05-24T08:27:19Z</time>
      </trkpt>
      <trkpt lat="45.84262" lon="4.78346">
        <ele>545.795</ele>
        <time>2015-05-24T08:27:28Z</time>
      </trkpt>
      <trkpt lat="45.84211" lon="4.78356">
        <ele>546.672</ele>
        <time>2015-05-24T08:27:36Z</time>
      </trkpt>
      <trkpt lat="45.84211" lon="4.78354">
        <ele>547.203</ele>
        <time>2015-05-24T08:27:37Z</time>
      </trkpt>
      <trkpt lat="45.84207" lon="4.78329">
        <ele>549.598</ele>
        <time>2015-05-24T08:27:45Z</time>
      </trkpt>
      <trkpt lat="45.8421" lon="4.78298">
        <ele>551.019</ele>
        <time>2015-05-24T08:27:52Z</time>
      </trkpt>
      <trkpt lat="45.84225" lon="4.78268">
        <ele>554.753</ele>
        <time>2015-05-24T08:28:01Z</time>
      </trkpt>
      <trkpt lat="45.84225" lon="4.78268">
        <ele>554.753</ele>
        <time>2015-05-24T08:28:02Z</time>
      </trkpt>
      <trkpt lat="45.84218" lon="4.78267">
        <ele>554.28</ele>
        <time>2015-05-24T08:28:06Z</time>
      </trkpt>
      <trkpt lat="45.84214" lon="4.78267">
        <ele>554.815</ele>
        <time>2015-05-24T08:28:08Z</time>
      </trkpt>
      <trkpt lat="45.84201" lon="4.78279">
        <ele>554.081</ele>
        <time>2015-05-24T08:28:12Z</time>
      </trkpt>
      <trkpt lat="45.84191" lon="4.78299">
        <ele>553.587</ele>
        <time>2015-05-24T08:28:15Z</time>
      </trkpt>
      <trkpt lat="45.84179" lon="4.78332">
        <ele>553.229</ele>
        <time>2015-05-24T08:28:20Z</time>
      </trkpt>
      <trkpt lat="45.84169" lon="4.78362">
        <ele>554.322</ele>
        <time>2015-05-24T08:28:27Z</time>
      </trkpt>
      <trkpt lat="45.84128" lon="4.7837">
        <ele>555.722</ele>
        <time>2015-05-24T08:28:39Z</time>
      </trkpt>
      <trkpt lat="45.84087" lon="4.78424">
        <ele>554.997</ele>
        <time>2015-05-24T08:28:47Z</time>
      </trkpt>
      <trkpt lat="45.84073" lon="4.78425">
        <ele>555.003</ele>
        <time>2015-05-24T08:28:50Z</time>
      </trkpt>
      <trkpt lat="45.8404" lon="4.78414">
        <ele>554.703</ele>
        <time>2015-05-24T08:28:54Z</time>
      </trkpt>
      <trkpt lat="45.84016" lon="4.78403">
        <ele>555.416</ele>
        <time>2015-05-24T08:29:04Z</time>
      </trkpt>
      <trkpt lat="45.83976" lon="4.78403">
        <ele>557.338</ele>
        <time>2015-05-24T08:29:13Z</time>
      </trkpt>
      <trkpt lat="45.83947" lon="4.78405">
        <ele>557.531</ele>
        <time>2015-05-24T08:29:20Z</time>
      </trkpt>
      <trkpt lat="45.83919" lon="4.78409">
        <ele>555.726</ele>
        <time>2015-05-24T08:29:23Z</time>
      </trkpt>
      <trkpt lat="45.83894" lon="4.78396">
        <ele>555.435</ele>
        <time>2015-05-24T08:29:27Z</time>
      </trkpt>
      <trkpt lat="45.83857" lon="4.78385">
        <ele>555.761</ele>
        <time>2015-05-24T08:29:37Z</time>
      </trkpt>
      <trkpt lat="45.83827" lon="4.78394">
        <ele>555.709</ele>
        <time>2015-05-24T08:29:43Z</time>
      </trkpt>
      <trkpt lat="45.83805" lon="4.784">
        <ele>553.877</ele>
        <time>2015-05-24T08:29:47Z</time>
      </trkpt>
      <trkpt lat="45.83788" lon="4.78405">
        <ele>553.101</ele>
        <time>2015-05-24T08:29:51Z</time>
      </trkpt>
      <trkpt lat="45.83759" lon="4.78402">
        <ele>553.45</ele>
        <time>2015-05-24T08:29:59Z</time>
      </trkpt>
      <trkpt lat="45.83736" lon="4.78396">
        <ele>553.446</ele>
        <time>2015-05-24T08:30:05Z</time>
      </trkpt>
      <trkpt lat="45.83721" lon="4.78392">
        <ele>553.25</ele>
        <time>2015-05-24T08:30:11Z</time>
      </trkpt>
      <trkpt lat="45.83702" lon="4.78388">
        <ele>554.598</ele>
        <time>2015-05-24T08:30:18Z</time>
      </trkpt>
      <trkpt lat="45.83669" lon="4.78387">
        <ele>557.238</ele>
        <time>2015-05-24T08:30:31Z</time>
      </trkpt>
      <trkpt lat="45.83646" lon="4.78402">
        <ele>558.914</ele>
        <time>2015-05-24T08:30:41Z</time>
      </trkpt>
      <trkpt lat="45.83612" lon="4.78429">
        <ele>560.41</ele>
        <time>2015-05-24T08:30:53Z</time>
      </trkpt>
      <trkpt lat="45.8361" lon="4.78432">
        <ele>561.122</ele>
        <time>2015-05-24T08:30:54Z</time>
      </trkpt>
      <trkpt lat="45.83583" lon="4.7847">
        <ele>563.377</ele>
        <time>2015-05-24T08:31:06Z</time>
      </trkpt>
      <trkpt lat="45.8357" lon="4.78495">
        <ele>564.069</ele>
        <time>2015-05-24T08:31:11Z</time>
      </trkpt>
      <trkpt lat="45.83543" lon="4.78544">
        <ele>564.353</ele>
        <time>2015-05-24T08:31:20Z</time>
      </trkpt>
      <trkpt lat="45.83509" lon="4.78582">
        <ele>562.336</ele>
        <time>2015-05-24T08:31:27Z</time>
      </trkpt>
      <trkpt lat="45.83493" lon="4.78598">
        <ele>561.028</ele>
        <time>2015-05-24T08:31:30Z</time>
      </trkpt>
      <trkpt lat="45.83483" lon="4.78609">
        <ele>559.728</ele>
        <time>2015-05-24T08:31:32Z</time>
      </trkpt>
      <trkpt lat="45.83458" lon="4.78636">
        <ele>556.675</ele>
        <time>2015-05-24T08:31:36Z</time>
      </trkpt>
      <trkpt lat="45.83453" lon="4.78641">
        <ele>556.686</ele>
        <time>2015-05-24T08:31:37Z</time>
      </trkpt>
      <trkpt lat="45.83433" lon="4.78668">
        <ele>554.357</ele>
        <time>2015-05-24T08:31:41Z</time>
      </trkpt>
      <trkpt lat="45.83403" lon="4.78695">
        <ele>552.471</ele>
        <time>2015-05-24T08:31:45Z</time>
      </trkpt>
      <trkpt lat="45.83362" lon="4.78713">
        <ele>547.861</ele>
        <time>2015-05-24T08:31:50Z</time>
      </trkpt>
      <trkpt lat="45.83355" lon="4.78715">
        <ele>547.876</ele>
        <time>2015-05-24T08:31:51Z</time>
      </trkpt>
      <trkpt lat="45.83345" lon="4.78719">
        <ele>546.13</ele>
        <time>2015-05-24T08:31:53Z</time>
      </trkpt>
      <trkpt lat="45.83331" lon="4.78725">
        <ele>544.045</ele>
        <time>2015-05-24T08:31:55Z</time>
      </trkpt>
      <trkpt lat="45.83313" lon="4.78726">
        <ele>540.532</ele>
        <time>2015-05-24T08:31:57Z</time>
      </trkpt>
      <trkpt lat="45.83297" lon="4.78736">
        <ele>538.993</ele>
        <time>2015-05-24T08:32:00Z</time>
      </trkpt>
      <trkpt lat="45.83291" lon="4.78741">
        <ele>537.942</ele>
        <time>2015-05-24T08:32:01Z</time>
      </trkpt>
      <trkpt lat="45.83276" lon="4.78752">
        <ele>535.804</ele>
        <time>2015-05-24T08:32:05Z</time>
      </trkpt>
      <trkpt lat="45.83262" lon="4.78763">
        <ele>534.285</ele>
        <time>2015-05-24T08:32:09Z</time>
      </trkpt>
      <trkpt lat="45.83241" lon="4.7878">
        <ele>533.353</ele>
        <time>2015-05-24T08:32:13Z</time>
      </trkpt>
      <trkpt lat="45.83221" lon="4.78802">
        <ele>532.274</ele>
        <time>2015-05-24T08:32:17Z</time>
      </trkpt>
      <trkpt lat="45.83188" lon="4.78861">
        <ele>529.748</ele>
        <time>2015-05-24T08:32:26Z</time>
      </trkpt>
      <trkpt lat="45.83184" lon="4.78872">
        <ele>529.851</ele>
        <time>2015-05-24T08:32:28Z</time>
      </trkpt>
      <trkpt lat="45.83177" lon="4.78886">
        <ele>528.91</ele>
        <time>2015-05-24T08:32:35Z</time>
      </trkpt>
      <trkpt lat="45.83177" lon="4.78886">
        <ele>527.765</ele>
        <time>2015-05-24T08:32:48Z</time>
      </trkpt>
      <trkpt lat="45.83177" lon="4.78886">
        <ele>527.914</ele>
        <time>2015-05-24T08:33:02Z</time>
      </trkpt>
      <trkpt lat="45.83177" lon="4.78886">
        <ele>528.047</ele>
        <time>2015-05-24T08:33:45Z</time>
      </trkpt>
      <trkpt lat="45.83177" lon="4.78886">
        <ele>527.932</ele>
        <time>2015-05-24T08:34:05Z</time>
      </trkpt>
      <trkpt lat="45.8314" lon="4.78925">
        <ele>527.038</ele>
        <time>2015-05-24T08:34:15Z</time>
      </trkpt>
      <trkpt lat="45.83127" lon="4.78937">
        <ele>526.241</ele>
        <time>2015-05-24T08:34:17Z</time>
      </trkpt>
      <trkpt lat="45.83099" lon="4.7896">
        <ele>524.054</ele>
        <time>2015-05-24T08:34:21Z</time>
      </trkpt>
      <trkpt lat="45.83084" lon="4.78971">
        <ele>519.977</ele>
        <time>2015-05-24T08:34:23Z</time>
      </trkpt>
      <trkpt lat="45.83076" lon="4.78976">
        <ele>519.978</ele>
        <time>2015-05-24T08:34:24Z</time>
      </trkpt>
      <trkpt lat="45.83068" lon="4.78982">
        <ele>516.967</ele>
        <time>2015-05-24T08:34:25Z</time>
      </trkpt>
      <trkpt lat="45.83061" lon="4.78987">
        <ele>516.967</ele>
        <time>2015-05-24T08:34:26Z</time>
      </trkpt>
      <trkpt lat="45.83052" lon="4.7899">
        <ele>514.688</ele>
        <time>2015-05-24T08:34:27Z</time>
      </trkpt>
      <trkpt lat="45.83028" lon="4.79">
        <ele>508.718</ele>
        <time>2015-05-24T08:34:30Z</time>
      </trkpt>
      <trkpt lat="45.8302" lon="4.78988">
        <ele>507.202</ele>
        <time>2015-05-24T08:34:33Z</time>
      </trkpt>
      <trkpt lat="45.83017" lon="4.78973">
        <ele>505.52</ele>
        <time>2015-05-24T08:34:35Z</time>
      </trkpt>
      <trkpt lat="45.83011" lon="4.78949">
        <ele>504.511</ele>
        <time>2015-05-24T08:34:38Z</time>
      </trkpt>
      <trkpt lat="45.82989" lon="4.78943">
        <ele>502.342</ele>
        <time>2015-05-24T08:34:42Z</time>
      </trkpt>
      <trkpt lat="45.82975" lon="4.78949">
        <ele>501.522</ele>
        <time>2015-05-24T08:34:44Z</time>
      </trkpt>
      <trkpt lat="45.82952" lon="4.7896">
        <ele>497.537</ele>
        <time>2015-05-24T08:34:47Z</time>
      </trkpt>
      <trkpt lat="45.82936" lon="4.78967">
        <ele>496.009</ele>
        <time>2015-05-24T08:34:49Z</time>
      </trkpt>
      <trkpt lat="45.8292" lon="4.78974">
        <ele>494.037</ele>
        <time>2015-05-24T08:34:51Z</time>
      </trkpt>
      <trkpt lat="45.82904" lon="4.7898">
        <ele>490.367</ele>
        <time>2015-05-24T08:34:53Z</time>
      </trkpt>
      <trkpt lat="45.82895" lon="4.78984">
        <ele>490.37</ele>
        <time>2015-05-24T08:34:54Z</time>
      </trkpt>
      <trkpt lat="45.82879" lon="4.78994">
        <ele>488.915</ele>
        <time>2015-05-24T08:34:56Z</time>
      </trkpt>
      <trkpt lat="45.82854" lon="4.79007">
        <ele>485.68</ele>
        <time>2015-05-24T08:34:59Z</time>
      </trkpt>
      <trkpt lat="45.82839" lon="4.79016">
        <ele>484.27</ele>
        <time>2015-05-24T08:35:01Z</time>
      </trkpt>
      <trkpt lat="45.82832" lon="4.7902">
        <ele>482.256</ele>
        <time>2015-05-24T08:35:02Z</time>
      </trkpt>
      <trkpt lat="45.82818" lon="4.79027">
        <ele>479.563</ele>
        <time>2015-05-24T08:35:05Z</time>
      </trkpt>
      <trkpt lat="45.82813" lon="4.79029">
        <ele>476.145</ele>
        <time>2015-05-24T08:35:07Z</time>
      </trkpt>
      <trkpt lat="45.82812" lon="4.79029">
        <ele>476.148</ele>
        <time>2015-05-24T08:35:08Z</time>
      </trkpt>
      <trkpt lat="45.82811" lon="4.7903">
        <ele>475.609</ele>
        <time>2015-05-24T08:35:13Z</time>
      </trkpt>
      <trkpt lat="45.82811" lon="4.7903">
        <ele>476.103</ele>
        <time>2015-05-24T08:35:34Z</time>
      </trkpt>
      <trkpt lat="45.82811" lon="4.7903">
        <ele>474.561</ele>
        <time>2015-05-24T08:35:38Z</time>
      </trkpt>
      <trkpt lat="45.82816" lon="4.79053">
        <ele>476.659</ele>
        <time>2015-05-24T08:35:42Z</time>
      </trkpt>
      <trkpt lat="45.82829" lon="4.7911">
        <ele>473.749</ele>
        <time>2015-05-24T08:35:50Z</time>
      </trkpt>
      <trkpt lat="45.82831" lon="4.79135">
        <ele>473.335</ele>
        <time>2015-05-24T08:35:53Z</time>
      </trkpt>
      <trkpt lat="45.82864" lon="4.79226">
        <ele>474.383</ele>
        <time>2015-05-24T08:36:07Z</time>
      </trkpt>
      <trkpt lat="45.82887" lon="4.79279">
        <ele>476.847</ele>
        <time>2015-05-24T08:36:19Z</time>
      </trkpt>
      <trkpt lat="45.82893" lon="4.79318">
        <ele>474.722</ele>
        <time>2015-05-24T08:36:24Z</time>
      </trkpt>
      <trkpt lat="45.82901" lon="4.79335">
        <ele>473.504</ele>
        <time>2015-05-24T08:36:27Z</time>
      </trkpt>
      <trkpt lat="45.8291" lon="4.79364">
        <ele>471.65</ele>
        <time>2015-05-24T08:36:31Z</time>
      </trkpt>
      <trkpt lat="45.82907" lon="4.79403">
        <ele>470.432</ele>
        <time>2015-05-24T08:36:35Z</time>
      </trkpt>
      <trkpt lat="45.82897" lon="4.79428">
        <ele>468.989</ele>
        <time>2015-05-24T08:36:38Z</time>
      </trkpt>
      <trkpt lat="45.82891" lon="4.79437">
        <ele>467.578</ele>
        <time>2015-05-24T08:36:40Z</time>
      </trkpt>
      <trkpt lat="45.82891" lon="4.79437">
        <ele>466.709</ele>
        <time>2015-05-24T08:36:41Z</time>
      </trkpt>
      <trkpt lat="45.82869" lon="4.79449">
        <ele>465.435</ele>
        <time>2015-05-24T08:36:43Z</time>
      </trkpt>
      <trkpt lat="45.82851" lon="4.79459">
        <ele>463.645</ele>
        <time>2015-05-24T08:36:46Z</time>
      </trkpt>
      <trkpt lat="45.8284" lon="4.79463">
        <ele>462.867</ele>
        <time>2015-05-24T08:36:48Z</time>
      </trkpt>
      <trkpt lat="45.82843" lon="4.79482">
        <ele>462.277</ele>
        <time>2015-05-24T08:36:52Z</time>
      </trkpt>
      <trkpt lat="45.82845" lon="4.79497">
        <ele>461.173</ele>
        <time>2015-05-24T08:36:54Z</time>
      </trkpt>
      <trkpt lat="45.82847" lon="4.79511">
        <ele>458.804</ele>
        <time>2015-05-24T08:36:56Z</time>
      </trkpt>
      <trkpt lat="45.82849" lon="4.79524">
        <ele>454.909</ele>
        <time>2015-05-24T08:36:58Z</time>
      </trkpt>
      <trkpt lat="45.82849" lon="4.79528">
        <ele>454.908</ele>
        <time>2015-05-24T08:36:59Z</time>
      </trkpt>
      <trkpt lat="45.82849" lon="4.79532">
        <ele>452.289</ele>
        <time>2015-05-24T08:37:01Z</time>
      </trkpt>
      <trkpt lat="45.82849" lon="4.79532">
        <ele>451.399</ele>
        <time>2015-05-24T08:37:04Z</time>
      </trkpt>
      <trkpt lat="45.82855" lon="4.79565">
        <ele>450.085</ele>
        <time>2015-05-24T08:37:07Z</time>
      </trkpt>
      <trkpt lat="45.8287" lon="4.7957">
        <ele>449.493</ele>
        <time>2015-05-24T08:37:11Z</time>
      </trkpt>
      <trkpt lat="45.82877" lon="4.79576">
        <ele>447.675</ele>
        <time>2015-05-24T08:37:13Z</time>
      </trkpt>
      <trkpt lat="45.8287" lon="4.79583">
        <ele>445.917</ele>
        <time>2015-05-24T08:37:16Z</time>
      </trkpt>
      <trkpt lat="45.82866" lon="4.79585">
        <ele>445.376</ele>
        <time>2015-05-24T08:37:18Z</time>
      </trkpt>
      <trkpt lat="45.82836" lon="4.79602">
        <ele>441.768</ele>
        <time>2015-05-24T08:37:28Z</time>
      </trkpt>
      <trkpt lat="45.8279" lon="4.79622">
        <ele>438.149</ele>
        <time>2015-05-24T08:37:35Z</time>
      </trkpt>
      <trkpt lat="45.82783" lon="4.79624">
        <ele>438.146</ele>
        <time>2015-05-24T08:37:36Z</time>
      </trkpt>
      <trkpt lat="45.82771" lon="4.79629">
        <ele>436.885</ele>
        <time>2015-05-24T08:37:38Z</time>
      </trkpt>
      <trkpt lat="45.82745" lon="4.79641">
        <ele>433.649</ele>
        <time>2015-05-24T08:37:42Z</time>
      </trkpt>
      <trkpt lat="45.82738" lon="4.79646">
        <ele>433.649</ele>
        <time>2015-05-24T08:37:43Z</time>
      </trkpt>
      <trkpt lat="45.82731" lon="4.79649">
        <ele>432.537</ele>
        <time>2015-05-24T08:37:44Z</time>
      </trkpt>
      <trkpt lat="45.82707" lon="4.79659">
        <ele>430.412</ele>
        <time>2015-05-24T08:37:47Z</time>
      </trkpt>
      <trkpt lat="45.82685" lon="4.79669">
        <ele>427.877</ele>
        <time>2015-05-24T08:37:50Z</time>
      </trkpt>
      <trkpt lat="45.82671" lon="4.79676">
        <ele>426.539</ele>
        <time>2015-05-24T08:37:52Z</time>
      </trkpt>
      <trkpt lat="45.82658" lon="4.79683">
        <ele>424.744</ele>
        <time>2015-05-24T08:37:54Z</time>
      </trkpt>
      <trkpt lat="45.82645" lon="4.7969">
        <ele>422.051</ele>
        <time>2015-05-24T08:37:56Z</time>
      </trkpt>
      <trkpt lat="45.82623" lon="4.79732">
        <ele>419.531</ele>
        <time>2015-05-24T08:38:03Z</time>
      </trkpt>
      <trkpt lat="45.82617" lon="4.79753">
        <ele>419.847</ele>
        <time>2015-05-24T08:38:06Z</time>
      </trkpt>
      <trkpt lat="45.82606" lon="4.79833">
        <ele>418.8</ele>
        <time>2015-05-24T08:38:20Z</time>
      </trkpt>
      <trkpt lat="45.82595" lon="4.79882">
        <ele>418.849</ele>
        <time>2015-05-24T08:38:28Z</time>
      </trkpt>
      <trkpt lat="45.82585" lon="4.79953">
        <ele>418.783</ele>
        <time>2015-05-24T08:38:39Z</time>
      </trkpt>
      <trkpt lat="45.82572" lon="4.79983">
        <ele>419.086</ele>
        <time>2015-05-24T08:38:44Z</time>
      </trkpt>
      <trkpt lat="45.82564" lon="4.80025">
        <ele>419.48</ele>
        <time>2015-05-24T08:38:50Z</time>
      </trkpt>
      <trkpt lat="45.82538" lon="4.80101">
        <ele>419.883</ele>
        <time>2015-05-24T08:39:05Z</time>
      </trkpt>
      <trkpt lat="45.82511" lon="4.80135">
        <ele>417.811</ele>
        <time>2015-05-24T08:39:11Z</time>
      </trkpt>
      <trkpt lat="45.82483" lon="4.80169">
        <ele>414.34</ele>
        <time>2015-05-24T08:39:17Z</time>
      </trkpt>
      <trkpt lat="45.82479" lon="4.80173">
        <ele>414.339</ele>
        <time>2015-05-24T08:39:18Z</time>
      </trkpt>
      <trkpt lat="45.82456" lon="4.80209">
        <ele>412.594</ele>
        <time>2015-05-24T08:39:25Z</time>
      </trkpt>
      <trkpt lat="45.82442" lon="4.80248">
        <ele>415.357</ele>
        <time>2015-05-24T08:39:34Z</time>
      </trkpt>
      <trkpt lat="45.82435" lon="4.80269">
        <ele>417.665</ele>
        <time>2015-05-24T08:39:39Z</time>
      </trkpt>
      <trkpt lat="45.82425" lon="4.80298">
        <ele>420.668</ele>
        <time>2015-05-24T08:39:49Z</time>
      </trkpt>
      <trkpt lat="45.82416" lon="4.80327">
        <ele>423.878</ele>
        <time>2015-05-24T08:40:03Z</time>
      </trkpt>
      <trkpt lat="45.82409" lon="4.80357">
        <ele>426.88</ele>
        <time>2015-05-24T08:40:15Z</time>
      </trkpt>
      <trkpt lat="45.82403" lon="4.80387">
        <ele>428.546</ele>
        <time>2015-05-24T08:40:34Z</time>
      </trkpt>
      <trkpt lat="45.82394" lon="4.80429">
        <ele>426.752</ele>
        <time>2015-05-24T08:40:44Z</time>
      </trkpt>
      <trkpt lat="45.82393" lon="4.80431">
        <ele>426.491</ele>
        <time>2015-05-24T08:40:45Z</time>
      </trkpt>
      <trkpt lat="45.82384" lon="4.80477">
        <ele>423.957</ele>
        <time>2015-05-24T08:40:53Z</time>
      </trkpt>
      <trkpt lat="45.82382" lon="4.80486">
        <ele>422.301</ele>
        <time>2015-05-24T08:40:54Z</time>
      </trkpt>
      <trkpt lat="45.82374" lon="4.80527">
        <ele>419.036</ele>
        <time>2015-05-24T08:40:58Z</time>
      </trkpt>
      <trkpt lat="45.82368" lon="4.80545">
        <ele>416.325</ele>
        <time>2015-05-24T08:41:00Z</time>
      </trkpt>
      <trkpt lat="45.82366" lon="4.80552">
        <ele>414.485</ele>
        <time>2015-05-24T08:41:01Z</time>
      </trkpt>
      <trkpt lat="45.82361" lon="4.80575">
        <ele>413.192</ele>
        <time>2015-05-24T08:41:04Z</time>
      </trkpt>
      <trkpt lat="45.8236" lon="4.80594">
        <ele>411.571</ele>
        <time>2015-05-24T08:41:06Z</time>
      </trkpt>
      <trkpt lat="45.82359" lon="4.80603">
        <ele>410.138</ele>
        <time>2015-05-24T08:41:07Z</time>
      </trkpt>
      <trkpt lat="45.82357" lon="4.80623">
        <ele>408.168</ele>
        <time>2015-05-24T08:41:09Z</time>
      </trkpt>
      <trkpt lat="45.82356" lon="4.80641">
        <ele>405.514</ele>
        <time>2015-05-24T08:41:11Z</time>
      </trkpt>
      <trkpt lat="45.82353" lon="4.80659">
        <ele>403.69</ele>
        <time>2015-05-24T08:41:13Z</time>
      </trkpt>
      <trkpt lat="45.82351" lon="4.8067">
        <ele>399.644</ele>
        <time>2015-05-24T08:41:15Z</time>
      </trkpt>
      <trkpt lat="45.82351" lon="4.8067">
        <ele>399.644</ele>
        <time>2015-05-24T08:41:16Z</time>
      </trkpt>
      <trkpt lat="45.82351" lon="4.8067">
        <ele>398.431</ele>
        <time>2015-05-24T08:41:34Z</time>
      </trkpt>
      <trkpt lat="45.82371" lon="4.80692">
        <ele>398.362</ele>
        <time>2015-05-24T08:41:41Z</time>
      </trkpt>
      <trkpt lat="45.82376" lon="4.80697">
        <ele>396.862</ele>
        <time>2015-05-24T08:41:46Z</time>
      </trkpt>
      <trkpt lat="45.82376" lon="4.80719">
        <ele>395.61</ele>
        <time>2015-05-24T08:41:48Z</time>
      </trkpt>
      <trkpt lat="45.82376" lon="4.80728">
        <ele>396.053</ele>
        <time>2015-05-24T08:41:50Z</time>
      </trkpt>
      <trkpt lat="45.82372" lon="4.80748">
        <ele>394.309</ele>
        <time>2015-05-24T08:41:53Z</time>
      </trkpt>
      <trkpt lat="45.8237" lon="4.80762">
        <ele>393.078</ele>
        <time>2015-05-24T08:41:55Z</time>
      </trkpt>
      <trkpt lat="45.8237" lon="4.80776">
        <ele>391.582</ele>
        <time>2015-05-24T08:41:57Z</time>
      </trkpt>
      <trkpt lat="45.8237" lon="4.80788">
        <ele>388.68</ele>
        <time>2015-05-24T08:42:00Z</time>
      </trkpt>
      <trkpt lat="45.8237" lon="4.80788">
        <ele>386.537</ele>
        <time>2015-05-24T08:42:02Z</time>
      </trkpt>
      <trkpt lat="45.82371" lon="4.80816">
        <ele>383.987</ele>
        <time>2015-05-24T08:42:10Z</time>
      </trkpt>
      <trkpt lat="45.82372" lon="4.80835">
        <ele>382.223</ele>
        <time>2015-05-24T08:42:14Z</time>
      </trkpt>
      <trkpt lat="45.82373" lon="4.80841">
        <ele>381.345</ele>
        <time>2015-05-24T08:42:16Z</time>
      </trkpt>
      <trkpt lat="45.82373" lon="4.80841">
        <ele>380.222</ele>
        <time>2015-05-24T08:42:20Z</time>
      </trkpt>
      <trkpt lat="45.82415" lon="4.80887">
        <ele>379.595</ele>
        <time>2015-05-24T08:42:30Z</time>
      </trkpt>
      <trkpt lat="45.82476" lon="4.80944">
        <ele>381.119</ele>
        <time>2015-05-24T08:42:48Z</time>
      </trkpt>
      <trkpt lat="45.82512" lon="4.80956">
        <ele>383.383</ele>
        <time>2015-05-24T08:42:58Z</time>
      </trkpt>
      <trkpt lat="45.82563" lon="4.80968">
        <ele>386.606</ele>
        <time>2015-05-24T08:43:13Z</time>
      </trkpt>
      <trkpt lat="45.82628" lon="4.80992">
        <ele>387.779</ele>
        <time>2015-05-24T08:43:33Z</time>
      </trkpt>
      <trkpt lat="45.82645" lon="4.81015">
        <ele>390.093</ele>
        <time>2015-05-24T08:43:42Z</time>
      </trkpt>
      <trkpt lat="45.82657" lon="4.81013">
        <ele>393.667</ele>
        <time>2015-05-24T08:43:50Z</time>
      </trkpt>
      <trkpt lat="45.82676" lon="4.81012">
        <ele>394.305</ele>
        <time>2015-05-24T08:44:02Z</time>
      </trkpt>
      <trkpt lat="45.82686" lon="4.81016">
        <ele>397.987</ele>
        <time>2015-05-24T08:44:10Z</time>
      </trkpt>
      <trkpt lat="45.82687" lon="4.81016">
        <ele>398.256</ele>
        <time>2015-05-24T08:44:11Z</time>
      </trkpt>
      <trkpt lat="45.82704" lon="4.81028">
        <ele>400.08</ele>
        <time>2015-05-24T08:44:23Z</time>
      </trkpt>
      <trkpt lat="45.82704" lon="4.81028">
        <ele>400.168</ele>
        <time>2015-05-24T08:44:24Z</time>
      </trkpt>
      <trkpt lat="45.82708" lon="4.81032">
        <ele>401.294</ele>
        <time>2015-05-24T08:44:28Z</time>
      </trkpt>
      <trkpt lat="45.82726" lon="4.81051">
        <ele>406.493</ele>
        <time>2015-05-24T08:44:43Z</time>
      </trkpt>
      <trkpt lat="45.82727" lon="4.81053">
        <ele>406.497</ele>
        <time>2015-05-24T08:44:44Z</time>
      </trkpt>
      <trkpt lat="45.82732" lon="4.81062">
        <ele>408.328</ele>
        <time>2015-05-24T08:44:49Z</time>
      </trkpt>
      <trkpt lat="45.82737" lon="4.81072">
        <ele>409.777</ele>
        <time>2015-05-24T08:44:55Z</time>
      </trkpt>
      <trkpt lat="45.82767" lon="4.81095">
        <ele>413.59</ele>
        <time>2015-05-24T08:45:15Z</time>
      </trkpt>
      <trkpt lat="45.8277" lon="4.81096">
        <ele>414.312</ele>
        <time>2015-05-24T08:45:17Z</time>
      </trkpt>
      <trkpt lat="45.82792" lon="4.81112">
        <ele>417.429</ele>
        <time>2015-05-24T08:45:31Z</time>
      </trkpt>
      <trkpt lat="45.82817" lon="4.81127">
        <ele>419.267</ele>
        <time>2015-05-24T08:45:44Z</time>
      </trkpt>
      <trkpt lat="45.82828" lon="4.81135">
        <ele>423.094</ele>
        <time>2015-05-24T08:45:53Z</time>
      </trkpt>
      <trkpt lat="45.82828" lon="4.81135">
        <ele>423.095</ele>
        <time>2015-05-24T08:45:54Z</time>
      </trkpt>
      <trkpt lat="45.82828" lon="4.81135">
        <ele>422.549</ele>
        <time>2015-05-24T08:46:00Z</time>
      </trkpt>
      <trkpt lat="45.82809" lon="4.81192">
        <ele>422.787</ele>
        <time>2015-05-24T08:46:17Z</time>
      </trkpt>
      <trkpt lat="45.82794" lon="4.81248">
        <ele>425.789</ele>
        <time>2015-05-24T08:46:32Z</time>
      </trkpt>
      <trkpt lat="45.82787" lon="4.81307">
        <ele>429.298</ele>
        <time>2015-05-24T08:46:47Z</time>
      </trkpt>
      <trkpt lat="45.82786" lon="4.81312">
        <ele>429.555</ele>
        <time>2015-05-24T08:46:48Z</time>
      </trkpt>
      <trkpt lat="45.8278" lon="4.8135">
        <ele>431.226</ele>
        <time>2015-05-24T08:46:58Z</time>
      </trkpt>
      <trkpt lat="45.82767" lon="4.81398">
        <ele>434.671</ele>
        <time>2015-05-24T08:47:11Z</time>
      </trkpt>
      <trkpt lat="45.82765" lon="4.81401">
        <ele>434.669</ele>
        <time>2015-05-24T08:47:12Z</time>
      </trkpt>
      <trkpt lat="45.8275" lon="4.81429">
        <ele>436.329</ele>
        <time>2015-05-24T08:47:22Z</time>
      </trkpt>
      <trkpt lat="45.82737" lon="4.81444">
        <ele>438.954</ele>
        <time>2015-05-24T08:47:29Z</time>
      </trkpt>
      <trkpt lat="45.82708" lon="4.8147">
        <ele>442.407</ele>
        <time>2015-05-24T08:47:44Z</time>
      </trkpt>
      <trkpt lat="45.82705" lon="4.81472">
        <ele>442.403</ele>
        <time>2015-05-24T08:47:45Z</time>
      </trkpt>
      <trkpt lat="45.82653" lon="4.81492">
        <ele>445.348</ele>
        <time>2015-05-24T08:48:08Z</time>
      </trkpt>
      <trkpt lat="45.82634" lon="4.81498">
        <ele>447.388</ele>
        <time>2015-05-24T08:48:17Z</time>
      </trkpt>
      <trkpt lat="45.82617" lon="4.81504">
        <ele>448.492</ele>
        <time>2015-05-24T08:48:25Z</time>
      </trkpt>
      <trkpt lat="45.82602" lon="4.81509">
        <ele>449.729</ele>
        <time>2015-05-24T08:48:29Z</time>
      </trkpt>
      <trkpt lat="45.82583" lon="4.81522">
        <ele>451.93</ele>
        <time>2015-05-24T08:48:36Z</time>
      </trkpt>
      <trkpt lat="45.82557" lon="4.81556">
        <ele>454.456</ele>
        <time>2015-05-24T08:48:50Z</time>
      </trkpt>
      <trkpt lat="45.82541" lon="4.81607">
        <ele>457.804</ele>
        <time>2015-05-24T08:49:05Z</time>
      </trkpt>
      <trkpt lat="45.8254" lon="4.8161">
        <ele>457.801</ele>
        <time>2015-05-24T08:49:06Z</time>
      </trkpt>
      <trkpt lat="45.82529" lon="4.81698">
        <ele>460.824</ele>
        <time>2015-05-24T08:49:28Z</time>
      </trkpt>
      <trkpt lat="45.82526" lon="4.81719">
        <ele>462.322</ele>
        <time>2015-05-24T08:49:33Z</time>
      </trkpt>
      <trkpt lat="45.82496" lon="4.81807">
        <ele>464.241</ele>
        <time>2015-05-24T08:49:55Z</time>
      </trkpt>
      <trkpt lat="45.82471" lon="4.81831">
        <ele>467.675</ele>
        <time>2015-05-24T08:50:05Z</time>
      </trkpt>
      <trkpt lat="45.82427" lon="4.81868">
        <ele>470.801</ele>
        <time>2015-05-24T08:50:21Z</time>
      </trkpt>
      <trkpt lat="45.82373" lon="4.81913">
        <ele>473.832</ele>
        <time>2015-05-24T08:50:40Z</time>
      </trkpt>
      <trkpt lat="45.82289" lon="4.81975">
        <ele>476.936</ele>
        <time>2015-05-24T08:51:05Z</time>
      </trkpt>
      <trkpt lat="45.82277" lon="4.82015">
        <ele>478.497</ele>
        <time>2015-05-24T08:51:14Z</time>
      </trkpt>
      <trkpt lat="45.82324" lon="4.82077">
        <ele>479.516</ele>
        <time>2015-05-24T08:51:31Z</time>
      </trkpt>
      <trkpt lat="45.82341" lon="4.82102">
        <ele>476.399</ele>
        <time>2015-05-24T08:51:44Z</time>
      </trkpt>
      <trkpt lat="45.82341" lon="4.82102">
        <ele>476.463</ele>
        <time>2015-05-24T08:52:18Z</time>
      </trkpt>
      <trkpt lat="45.82341" lon="4.82102">
        <ele>477.078</ele>
        <time>2015-05-24T08:52:27Z</time>
      </trkpt>
      <trkpt lat="45.82348" lon="4.82111">
        <ele>477.24</ele>
        <time>2015-05-24T08:52:33Z</time>
      </trkpt>
      <trkpt lat="45.82367" lon="4.82127">
        <ele>475.732</ele>
        <time>2015-05-24T08:52:38Z</time>
      </trkpt>
      <trkpt lat="45.8238" lon="4.82127">
        <ele>477.407</ele>
        <time>2015-05-24T08:52:41Z</time>
      </trkpt>
      <trkpt lat="45.8239" lon="4.82128">
        <ele>477.032</ele>
        <time>2015-05-24T08:52:43Z</time>
      </trkpt>
      <trkpt lat="45.82434" lon="4.82156">
        <ele>478.233</ele>
        <time>2015-05-24T08:52:56Z</time>
      </trkpt>
      <trkpt lat="45.82448" lon="4.82163">
        <ele>479.319</ele>
        <time>2015-05-24T08:53:00Z</time>
      </trkpt>
      <trkpt lat="45.82474" lon="4.8216">
        <ele>480.08</ele>
        <time>2015-05-24T08:53:08Z</time>
      </trkpt>
      <trkpt lat="45.82484" lon="4.82163">
        <ele>480.283</ele>
        <time>2015-05-24T08:53:13Z</time>
      </trkpt>
      <trkpt lat="45.82494" lon="4.82171">
        <ele>480.067</ele>
        <time>2015-05-24T08:53:16Z</time>
      </trkpt>
      <trkpt lat="45.82518" lon="4.82225">
        <ele>480.217</ele>
        <time>2015-05-24T08:53:20Z</time>
      </trkpt>
      <trkpt lat="45.82508" lon="4.82198">
        <ele>478.792</ele>
        <time>2015-05-24T08:53:22Z</time>
      </trkpt>
      <trkpt lat="45.82514" lon="4.82215">
        <ele>477.932</ele>
        <time>2015-05-24T08:53:25Z</time>
      </trkpt>
      <trkpt lat="45.8252" lon="4.82221">
        <ele>477.219</ele>
        <time>2015-05-24T08:53:28Z</time>
      </trkpt>
      <trkpt lat="45.82522" lon="4.82225">
        <ele>476.133</ele>
        <time>2015-05-24T08:53:30Z</time>
      </trkpt>
      <trkpt lat="45.82522" lon="4.82225">
        <ele>475.65</ele>
        <time>2015-05-24T08:53:32Z</time>
      </trkpt>
      <trkpt lat="45.82562" lon="4.82227">
        <ele>473.524</ele>
        <time>2015-05-24T08:53:41Z</time>
      </trkpt>
      <trkpt lat="45.82579" lon="4.82228">
        <ele>474.302</ele>
        <time>2015-05-24T08:53:45Z</time>
      </trkpt>
      <trkpt lat="45.82584" lon="4.82228">
        <ele>473.296</ele>
        <time>2015-05-24T08:53:48Z</time>
      </trkpt>
      <trkpt lat="45.82629" lon="4.82204">
        <ele>471.008</ele>
        <time>2015-05-24T08:53:58Z</time>
      </trkpt>
      <trkpt lat="45.82632" lon="4.82203">
        <ele>470.354</ele>
        <time>2015-05-24T08:53:59Z</time>
      </trkpt>
      <trkpt lat="45.82659" lon="4.82193">
        <ele>468.698</ele>
        <time>2015-05-24T08:54:07Z</time>
      </trkpt>
      <trkpt lat="45.82661" lon="4.82184">
        <ele>466.868</ele>
        <time>2015-05-24T08:54:09Z</time>
      </trkpt>
      <trkpt lat="45.82655" lon="4.8217">
        <ele>465.546</ele>
        <time>2015-05-24T08:54:12Z</time>
      </trkpt>
      <trkpt lat="45.82651" lon="4.82159">
        <ele>464.83</ele>
        <time>2015-05-24T08:54:14Z</time>
      </trkpt>
      <trkpt lat="45.82643" lon="4.82136">
        <ele>465.933</ele>
        <time>2015-05-24T08:54:19Z</time>
      </trkpt>
      <trkpt lat="45.82643" lon="4.82136">
        <ele>466.089</ele>
        <time>2015-05-24T08:54:38Z</time>
      </trkpt>
      <trkpt lat="45.82643" lon="4.82136">
        <ele>465.351</ele>
        <time>2015-05-24T08:54:47Z</time>
      </trkpt>
      <trkpt lat="45.82636" lon="4.82108">
        <ele>466.922</ele>
        <time>2015-05-24T08:54:55Z</time>
      </trkpt>
      <trkpt lat="45.82632" lon="4.82093">
        <ele>466.354</ele>
        <time>2015-05-24T08:54:58Z</time>
      </trkpt>
      <trkpt lat="45.82624" lon="4.82066">
        <ele>466.067</ele>
        <time>2015-05-24T08:55:03Z</time>
      </trkpt>
      <trkpt lat="45.82621" lon="4.82043">
        <ele>465.76</ele>
        <time>2015-05-24T08:55:07Z</time>
      </trkpt>
      <trkpt lat="45.82622" lon="4.82024">
        <ele>466.205</ele>
        <time>2015-05-24T08:55:10Z</time>
      </trkpt>
      <trkpt lat="45.82625" lon="4.82011">
        <ele>464.287</ele>
        <time>2015-05-24T08:55:14Z</time>
      </trkpt>
      <trkpt lat="45.82625" lon="4.82011">
        <ele>464.589</ele>
        <time>2015-05-24T08:55:23Z</time>
      </trkpt>
      <trkpt lat="45.82635" lon="4.82017">
        <ele>463.197</ele>
        <time>2015-05-24T08:55:28Z</time>
      </trkpt>
      <trkpt lat="45.8264" lon="4.82023">
        <ele>461.307</ele>
        <time>2015-05-24T08:55:30Z</time>
      </trkpt>
      <trkpt lat="45.82648" lon="4.82026">
        <ele>459.734</ele>
        <time>2015-05-24T08:55:32Z</time>
      </trkpt>
      <trkpt lat="45.8266" lon="4.82025">
        <ele>456.601</ele>
        <time>2015-05-24T08:55:35Z</time>
      </trkpt>
      <trkpt lat="45.82665" lon="4.82023">
        <ele>454.639</ele>
        <time>2015-05-24T08:55:37Z</time>
      </trkpt>
      <trkpt lat="45.82627" lon="4.81997">
        <ele>452.895</ele>
        <time>2015-05-24T08:55:39Z</time>
      </trkpt>
      <trkpt lat="45.8263" lon="4.81984">
        <ele>447.874</ele>
        <time>2015-05-24T08:55:42Z</time>
      </trkpt>
      <trkpt lat="45.82684" lon="4.82001">
        <ele>446.617</ele>
        <time>2015-05-24T08:55:44Z</time>
      </trkpt>
      <trkpt lat="45.82692" lon="4.82004">
        <ele>445.15</ele>
        <time>2015-05-24T08:55:46Z</time>
      </trkpt>
      <trkpt lat="45.82701" lon="4.82003">
        <ele>440.873</ele>
        <time>2015-05-24T08:55:48Z</time>
      </trkpt>
      <trkpt lat="45.82705" lon="4.82003">
        <ele>440.878</ele>
        <time>2015-05-24T08:55:49Z</time>
      </trkpt>
      <trkpt lat="45.82714" lon="4.82001">
        <ele>438.968</ele>
        <time>2015-05-24T08:55:51Z</time>
      </trkpt>
      <trkpt lat="45.82722" lon="4.82003">
        <ele>436.201</ele>
        <time>2015-05-24T08:55:53Z</time>
      </trkpt>
      <trkpt lat="45.82729" lon="4.82002">
        <ele>430.714</ele>
        <time>2015-05-24T08:55:55Z</time>
      </trkpt>
      <trkpt lat="45.82733" lon="4.82004">
        <ele>430.714</ele>
        <time>2015-05-24T08:55:56Z</time>
      </trkpt>
      <trkpt lat="45.8275" lon="4.82002">
        <ele>429.205</ele>
        <time>2015-05-24T08:56:00Z</time>
      </trkpt>
      <trkpt lat="45.82761" lon="4.82005">
        <ele>425.77</ele>
        <time>2015-05-24T08:56:03Z</time>
      </trkpt>
      <trkpt lat="45.82764" lon="4.82005">
        <ele>423.72</ele>
        <time>2015-05-24T08:56:04Z</time>
      </trkpt>
      <trkpt lat="45.82771" lon="4.82007">
        <ele>422.409</ele>
        <time>2015-05-24T08:56:07Z</time>
      </trkpt>
      <trkpt lat="45.82788" lon="4.82007">
        <ele>420.605</ele>
        <time>2015-05-24T08:56:11Z</time>
      </trkpt>
      <trkpt lat="45.8279" lon="4.82009">
        <ele>420.615</ele>
        <time>2015-05-24T08:56:12Z</time>
      </trkpt>
      <trkpt lat="45.82803" lon="4.82008">
        <ele>419.058</ele>
        <time>2015-05-24T08:56:14Z</time>
      </trkpt>
      <trkpt lat="45.82812" lon="4.8201">
        <ele>417.293</ele>
        <time>2015-05-24T08:56:16Z</time>
      </trkpt>
      <trkpt lat="45.82823" lon="4.82013">
        <ele>414.201</ele>
        <time>2015-05-24T08:56:18Z</time>
      </trkpt>
      <trkpt lat="45.82832" lon="4.82006">
        <ele>414.201</ele>
        <time>2015-05-24T08:56:19Z</time>
      </trkpt>
      <trkpt lat="45.82836" lon="4.82009">
        <ele>411.358</ele>
        <time>2015-05-24T08:56:20Z</time>
      </trkpt>
      <trkpt lat="45.82849" lon="4.8201">
        <ele>408.784</ele>
        <time>2015-05-24T08:56:26Z</time>
      </trkpt>
      <trkpt lat="45.82851" lon="4.82016">
        <ele>407.978</ele>
        <time>2015-05-24T08:56:53Z</time>
      </trkpt>
      <trkpt lat="45.82851" lon="4.82016">
        <ele>407.134</ele>
        <time>2015-05-24T08:57:03Z</time>
      </trkpt>
      <trkpt lat="45.82866" lon="4.82018">
        <ele>405.492</ele>
        <time>2015-05-24T08:57:10Z</time>
      </trkpt>
      <trkpt lat="45.82882" lon="4.82011">
        <ele>404.016</ele>
        <time>2015-05-24T08:57:17Z</time>
      </trkpt>
      <trkpt lat="45.8289" lon="4.82">
        <ele>402.32</ele>
        <time>2015-05-24T08:57:23Z</time>
      </trkpt>
      <trkpt lat="45.82903" lon="4.81998">
        <ele>401.239</ele>
        <time>2015-05-24T08:57:29Z</time>
      </trkpt>
      <trkpt lat="45.82908" lon="4.81998">
        <ele>399.7</ele>
        <time>2015-05-24T08:57:31Z</time>
      </trkpt>
      <trkpt lat="45.82914" lon="4.82">
        <ele>398.336</ele>
        <time>2015-05-24T08:57:33Z</time>
      </trkpt>
      <trkpt lat="45.82917" lon="4.81997">
        <ele>396.232</ele>
        <time>2015-05-24T08:57:35Z</time>
      </trkpt>
      <trkpt lat="45.82918" lon="4.81996">
        <ele>395.23</ele>
        <time>2015-05-24T08:57:37Z</time>
      </trkpt>
      <trkpt lat="45.82938" lon="4.81997">
        <ele>391.169</ele>
        <time>2015-05-24T08:57:45Z</time>
      </trkpt>
      <trkpt lat="45.82959" lon="4.8203">
        <ele>389.174</ele>
        <time>2015-05-24T08:57:47Z</time>
      </trkpt>
      <trkpt lat="45.8296" lon="4.82029">
        <ele>387.707</ele>
        <time>2015-05-24T08:57:49Z</time>
      </trkpt>
      <trkpt lat="45.8296" lon="4.82029">
        <ele>384.584</ele>
        <time>2015-05-24T08:57:50Z</time>
      </trkpt>
      <trkpt lat="45.82964" lon="4.81991">
        <ele>383.939</ele>
        <time>2015-05-24T08:57:54Z</time>
      </trkpt>
      <trkpt lat="45.82964" lon="4.81991">
        <ele>386.799</ele>
        <time>2015-05-24T08:58:01Z</time>
      </trkpt>
      <trkpt lat="45.82964" lon="4.81991">
        <ele>387.877</ele>
        <time>2015-05-24T08:58:03Z</time>
      </trkpt>
      <trkpt lat="45.82961" lon="4.82029">
        <ele>390.457</ele>
        <time>2015-05-24T08:58:13Z</time>
      </trkpt>
      <trkpt lat="45.82961" lon="4.82029">
        <ele>391.039</ele>
        <time>2015-05-24T08:58:28Z</time>
      </trkpt>
      <trkpt lat="45.82973" lon="4.81997">
        <ele>388.527</ele>
        <time>2015-05-24T08:58:34Z</time>
      </trkpt>
      <trkpt lat="45.82985" lon="4.82006">
        <ele>386.698</ele>
        <time>2015-05-24T08:58:37Z</time>
      </trkpt>
      <trkpt lat="45.82988" lon="4.8201">
        <ele>386.41</ele>
        <time>2015-05-24T08:58:49Z</time>
      </trkpt>
      <trkpt lat="45.82988" lon="4.8201">
        <ele>387.066</ele>
        <time>2015-05-24T08:59:10Z</time>
      </trkpt>
      <trkpt lat="45.83" lon="4.82028">
        <ele>388.127</ele>
        <time>2015-05-24T08:59:19Z</time>
      </trkpt>
      <trkpt lat="45.83" lon="4.82028">
        <ele>387.661</ele>
        <time>2015-05-24T08:59:25Z</time>
      </trkpt>
      <trkpt lat="45.83035" lon="4.82067">
        <ele>384.535</ele>
        <time>2015-05-24T08:59:30Z</time>
      </trkpt>
      <trkpt lat="45.83039" lon="4.82074">
        <ele>384.548</ele>
        <time>2015-05-24T08:59:31Z</time>
      </trkpt>
      <trkpt lat="45.83061" lon="4.82103">
        <ele>380.772</ele>
        <time>2015-05-24T08:59:35Z</time>
      </trkpt>
      <trkpt lat="45.83067" lon="4.82112">
        <ele>380.788</ele>
        <time>2015-05-24T08:59:36Z</time>
      </trkpt>
      <trkpt lat="45.83082" lon="4.82131">
        <ele>378.806</ele>
        <time>2015-05-24T08:59:38Z</time>
      </trkpt>
      <trkpt lat="45.83105" lon="4.8217">
        <ele>373.667</ele>
        <time>2015-05-24T08:59:42Z</time>
      </trkpt>
      <trkpt lat="45.83109" lon="4.82181">
        <ele>373.686</ele>
        <time>2015-05-24T08:59:43Z</time>
      </trkpt>
      <trkpt lat="45.83113" lon="4.82193">
        <ele>371.929</ele>
        <time>2015-05-24T08:59:44Z</time>
      </trkpt>
      <trkpt lat="45.83124" lon="4.82234">
        <ele>370.578</ele>
        <time>2015-05-24T08:59:47Z</time>
      </trkpt>
      <trkpt lat="45.83126" lon="4.82258">
        <ele>369.101</ele>
        <time>2015-05-24T08:59:49Z</time>
      </trkpt>
      <trkpt lat="45.83132" lon="4.82285">
        <ele>364.989</ele>
        <time>2015-05-24T08:59:51Z</time>
      </trkpt>
      <trkpt lat="45.83135" lon="4.82307">
        <ele>362.77</ele>
        <time>2015-05-24T08:59:54Z</time>
      </trkpt>
      <trkpt lat="45.83136" lon="4.82314">
        <ele>362.148</ele>
        <time>2015-05-24T08:59:55Z</time>
      </trkpt>
      <trkpt lat="45.83137" lon="4.82372">
        <ele>361.322</ele>
        <time>2015-05-24T09:00:03Z</time>
      </trkpt>
      <trkpt lat="45.83134" lon="4.824">
        <ele>361.299</ele>
        <time>2015-05-24T09:00:06Z</time>
      </trkpt>
      <trkpt lat="45.83137" lon="4.82442">
        <ele>360.855</ele>
        <time>2015-05-24T09:00:11Z</time>
      </trkpt>
      <trkpt lat="45.83137" lon="4.82507">
        <ele>357.91</ele>
        <time>2015-05-24T09:00:18Z</time>
      </trkpt>
      <trkpt lat="45.83127" lon="4.82558">
        <ele>356.436</ele>
        <time>2015-05-24T09:00:24Z</time>
      </trkpt>
      <trkpt lat="45.8311" lon="4.82604">
        <ele>355.191</ele>
        <time>2015-05-24T09:00:30Z</time>
      </trkpt>
      <trkpt lat="45.83086" lon="4.82649">
        <ele>356.785</ele>
        <time>2015-05-24T09:00:38Z</time>
      </trkpt>
      <trkpt lat="45.83073" lon="4.82658">
        <ele>356.03</ele>
        <time>2015-05-24T09:00:41Z</time>
      </trkpt>
      <trkpt lat="45.83046" lon="4.82701">
        <ele>356.993</ele>
        <time>2015-05-24T09:00:51Z</time>
      </trkpt>
      <trkpt lat="45.83039" lon="4.8272">
        <ele>357.224</ele>
        <time>2015-05-24T09:00:55Z</time>
      </trkpt>
      <trkpt lat="45.83029" lon="4.82739">
        <ele>358.08</ele>
        <time>2015-05-24T09:00:59Z</time>
      </trkpt>
      <trkpt lat="45.83023" lon="4.82748">
        <ele>358.393</ele>
        <time>2015-05-24T09:01:01Z</time>
      </trkpt>
      <trkpt lat="45.83017" lon="4.82757">
        <ele>358.91</ele>
        <time>2015-05-24T09:01:03Z</time>
      </trkpt>
      <trkpt lat="45.82997" lon="4.82784">
        <ele>357.716</ele>
        <time>2015-05-24T09:01:12Z</time>
      </trkpt>
      <trkpt lat="45.82997" lon="4.82784">
        <ele>357.44</ele>
        <time>2015-05-24T09:01:43Z</time>
      </trkpt>
      <trkpt lat="45.83002" lon="4.82809">
        <ele>355.182</ele>
        <time>2015-05-24T09:01:48Z</time>
      </trkpt>
      <trkpt lat="45.83008" lon="4.82818">
        <ele>352.806</ele>
        <time>2015-05-24T09:01:50Z</time>
      </trkpt>
      <trkpt lat="45.83013" lon="4.82823">
        <ele>349.363</ele>
        <time>2015-05-24T09:01:51Z</time>
      </trkpt>
      <trkpt lat="45.83017" lon="4.82826">
        <ele>349.374</ele>
        <time>2015-05-24T09:01:52Z</time>
      </trkpt>
      <trkpt lat="45.83019" lon="4.82831">
        <ele>346.448</ele>
        <time>2015-05-24T09:01:54Z</time>
      </trkpt>
      <trkpt lat="45.83023" lon="4.82834">
        <ele>341.846</ele>
        <time>2015-05-24T09:01:56Z</time>
      </trkpt>
      <trkpt lat="45.83026" lon="4.82836">
        <ele>341.86</ele>
        <time>2015-05-24T09:01:57Z</time>
      </trkpt>
      <trkpt lat="45.83034" lon="4.82843">
        <ele>338.488</ele>
        <time>2015-05-24T09:02:00Z</time>
      </trkpt>
      <trkpt lat="45.83043" lon="4.82847">
        <ele>335.454</ele>
        <time>2015-05-24T09:02:03Z</time>
      </trkpt>
      <trkpt lat="45.83048" lon="4.82854">
        <ele>333.529</ele>
        <time>2015-05-24T09:02:06Z</time>
      </trkpt>
      <trkpt lat="45.83053" lon="4.82861">
        <ele>331.919</ele>
        <time>2015-05-24T09:02:08Z</time>
      </trkpt>
      <trkpt lat="45.83055" lon="4.82864">
        <ele>329.667</ele>
        <time>2015-05-24T09:02:11Z</time>
      </trkpt>
      <trkpt lat="45.83061" lon="4.82865">
        <ele>329.336</ele>
        <time>2015-05-24T09:02:42Z</time>
      </trkpt>
      <trkpt lat="45.83062" lon="4.82866">
        <ele>329.876</ele>
        <time>2015-05-24T09:03:18Z</time>
      </trkpt>
      <trkpt lat="45.83061" lon="4.82869">
        <ele>330.108</ele>
        <time>2015-05-24T09:03:20Z</time>
      </trkpt>
      <trkpt lat="45.83058" lon="4.82896">
        <ele>329.341</ele>
        <time>2015-05-24T09:03:28Z</time>
      </trkpt>
      <trkpt lat="45.83055" lon="4.82901">
        <ele>328.861</ele>
        <time>2015-05-24T09:03:31Z</time>
      </trkpt>
      <trkpt lat="45.83049" lon="4.82931">
        <ele>329.331</ele>
        <time>2015-05-24T09:03:39Z</time>
      </trkpt>
      <trkpt lat="45.83042" lon="4.82965">
        <ele>330.83</ele>
        <time>2015-05-24T09:03:48Z</time>
      </trkpt>
      <trkpt lat="45.8304" lon="4.82969">
        <ele>330.92</ele>
        <time>2015-05-24T09:03:49Z</time>
      </trkpt>
      <trkpt lat="45.83032" lon="4.83061">
        <ele>332.491</ele>
        <time>2015-05-24T09:04:04Z</time>
      </trkpt>
      <trkpt lat="45.83048" lon="4.8308">
        <ele>330.394</ele>
        <time>2015-05-24T09:04:10Z</time>
      </trkpt>
      <trkpt lat="45.83089" lon="4.83087">
        <ele>327.412</ele>
        <time>2015-05-24T09:04:16Z</time>
      </trkpt>
      <trkpt lat="45.83116" lon="4.83092">
        <ele>325.513</ele>
        <time>2015-05-24T09:04:20Z</time>
      </trkpt>
      <trkpt lat="45.83131" lon="4.83079">
        <ele>323.199</ele>
        <time>2015-05-24T09:04:23Z</time>
      </trkpt>
      <trkpt lat="45.83132" lon="4.83069">
        <ele>322.79</ele>
        <time>2015-05-24T09:04:25Z</time>
      </trkpt>
      <trkpt lat="45.83133" lon="4.83063">
        <ele>320.572</ele>
        <time>2015-05-24T09:04:27Z</time>
      </trkpt>
      <trkpt lat="45.83134" lon="4.8306">
        <ele>318.848</ele>
        <time>2015-05-24T09:04:28Z</time>
      </trkpt>
      <trkpt lat="45.83135" lon="4.83054">
        <ele>317.25</ele>
        <time>2015-05-24T09:04:30Z</time>
      </trkpt>
      <trkpt lat="45.83137" lon="4.83042">
        <ele>316.472</ele>
        <time>2015-05-24T09:04:32Z</time>
      </trkpt>
      <trkpt lat="45.83142" lon="4.82998">
        <ele>314.265</ele>
        <time>2015-05-24T09:04:36Z</time>
      </trkpt>
      <trkpt lat="45.83148" lon="4.82961">
        <ele>312.244</ele>
        <time>2015-05-24T09:04:40Z</time>
      </trkpt>
      <trkpt lat="45.83158" lon="4.82941">
        <ele>310.169</ele>
        <time>2015-05-24T09:04:44Z</time>
      </trkpt>
      <trkpt lat="45.83176" lon="4.82914">
        <ele>309.332</ele>
        <time>2015-05-24T09:04:52Z</time>
      </trkpt>
      <trkpt lat="45.83203" lon="4.82851">
        <ele>308.907</ele>
        <time>2015-05-24T09:05:04Z</time>
      </trkpt>
      <trkpt lat="45.83197" lon="4.82866">
        <ele>310.116</ele>
        <time>2015-05-24T09:05:10Z</time>
      </trkpt>
      <trkpt lat="45.83207" lon="4.82795">
        <ele>310.548</ele>
        <time>2015-05-24T09:05:15Z</time>
      </trkpt>
      <trkpt lat="45.8322" lon="4.82788">
        <ele>309.7</ele>
        <time>2015-05-24T09:05:18Z</time>
      </trkpt>
      <trkpt lat="45.83237" lon="4.8278">
        <ele>307.439</ele>
        <time>2015-05-24T09:05:21Z</time>
      </trkpt>
      <trkpt lat="45.8325" lon="4.82773">
        <ele>306.025</ele>
        <time>2015-05-24T09:05:23Z</time>
      </trkpt>
      <trkpt lat="45.83263" lon="4.82766">
        <ele>304.416</ele>
        <time>2015-05-24T09:05:25Z</time>
      </trkpt>
      <trkpt lat="45.83285" lon="4.82755">
        <ele>300.67</ele>
        <time>2015-05-24T09:05:28Z</time>
      </trkpt>
      <trkpt lat="45.833" lon="4.82746">
        <ele>299.243</ele>
        <time>2015-05-24T09:05:30Z</time>
      </trkpt>
      <trkpt lat="45.83313" lon="4.82738">
        <ele>297.78</ele>
        <time>2015-05-24T09:05:32Z</time>
      </trkpt>
      <trkpt lat="45.83325" lon="4.82731">
        <ele>294.46</ele>
        <time>2015-05-24T09:05:34Z</time>
      </trkpt>
      <trkpt lat="45.83331" lon="4.82729">
        <ele>291.07</ele>
        <time>2015-05-24T09:05:35Z</time>
      </trkpt>
      <trkpt lat="45.83337" lon="4.82727">
        <ele>288.475</ele>
        <time>2015-05-24T09:05:36Z</time>
      </trkpt>
      <trkpt lat="45.83363" lon="4.8271">
        <ele>285.895</ele>
        <time>2015-05-24T09:05:39Z</time>
      </trkpt>
      <trkpt lat="45.83367" lon="4.82704">
        <ele>283.396</ele>
        <time>2015-05-24T09:05:40Z</time>
      </trkpt>
      <trkpt lat="45.834" lon="4.82683">
        <ele>278.939</ele>
        <time>2015-05-24T09:05:43Z</time>
      </trkpt>
      <trkpt lat="45.83427" lon="4.82661">
        <ele>275.999</ele>
        <time>2015-05-24T09:05:46Z</time>
      </trkpt>
      <trkpt lat="45.83448" lon="4.82643">
        <ele>272.737</ele>
        <time>2015-05-24T09:05:48Z</time>
      </trkpt>
      <trkpt lat="45.83454" lon="4.82637">
        <ele>269.918</ele>
        <time>2015-05-24T09:05:49Z</time>
      </trkpt>
      <trkpt lat="45.83458" lon="4.82632">
        <ele>266.229</ele>
        <time>2015-05-24T09:05:51Z</time>
      </trkpt>
      <trkpt lat="45.83464" lon="4.82634">
        <ele>263.718</ele>
        <time>2015-05-24T09:05:53Z</time>
      </trkpt>
      <trkpt lat="45.83465" lon="4.8264">
        <ele>262.371</ele>
        <time>2015-05-24T09:05:55Z</time>
      </trkpt>
      <trkpt lat="45.83467" lon="4.82665">
        <ele>262.363</ele>
        <time>2015-05-24T09:06:07Z</time>
      </trkpt>
      <trkpt lat="45.83479" lon="4.82674">
        <ele>262.124</ele>
        <time>2015-05-24T09:06:11Z</time>
      </trkpt>
      <trkpt lat="45.83484" lon="4.82693">
        <ele>258.802</ele>
        <time>2015-05-24T09:06:20Z</time>
      </trkpt>
      <trkpt lat="45.83464" lon="4.82732">
        <ele>262.339</ele>
        <time>2015-05-24T09:06:33Z</time>
      </trkpt>
      <trkpt lat="45.83462" lon="4.82737">
        <ele>263.068</ele>
        <time>2015-05-24T09:06:35Z</time>
      </trkpt>
      <trkpt lat="45.83449" lon="4.82783">
        <ele>266.233</ele>
        <time>2015-05-24T09:06:48Z</time>
      </trkpt>
      <trkpt lat="45.83442" lon="4.82841">
        <ele>267.439</ele>
        <time>2015-05-24T09:06:59Z</time>
      </trkpt>
      <trkpt lat="45.83413" lon="4.82948">
        <ele>266.608</ele>
        <time>2015-05-24T09:07:15Z</time>
      </trkpt>
      <trkpt lat="45.83401" lon="4.82967">
        <ele>268.237</ele>
        <time>2015-05-24T09:07:19Z</time>
      </trkpt>
      <trkpt lat="45.83372" lon="4.82993">
        <ele>270.057</ele>
        <time>2015-05-24T09:07:27Z</time>
      </trkpt>
      <trkpt lat="45.83346" lon="4.8303">
        <ele>270.439</ele>
        <time>2015-05-24T09:07:34Z</time>
      </trkpt>
      <trkpt lat="45.83312" lon="4.83104">
        <ele>273.576</ele>
        <time>2015-05-24T09:07:47Z</time>
      </trkpt>
      <trkpt lat="45.83299" lon="4.83134">
        <ele>274.565</ele>
        <time>2015-05-24T09:07:53Z</time>
      </trkpt>
      <trkpt lat="45.83291" lon="4.83149">
        <ele>274.846</ele>
        <time>2015-05-24T09:07:56Z</time>
      </trkpt>
      <trkpt lat="45.83234" lon="4.83228">
        <ele>275.153</ele>
        <time>2015-05-24T09:08:10Z</time>
      </trkpt>
      <trkpt lat="45.83177" lon="4.83327">
        <ele>274.342</ele>
        <time>2015-05-24T09:08:26Z</time>
      </trkpt>
      <trkpt lat="45.83161" lon="4.83345">
        <ele>274.434</ele>
        <time>2015-05-24T09:08:30Z</time>
      </trkpt>
      <trkpt lat="45.8315" lon="4.83359">
        <ele>274.197</ele>
        <time>2015-05-24T09:08:33Z</time>
      </trkpt>
      <trkpt lat="45.8314" lon="4.83369">
        <ele>274.231</ele>
        <time>2015-05-24T09:08:36Z</time>
      </trkpt>
      <trkpt lat="45.83141" lon="4.83391">
        <ele>273.918</ele>
        <time>2015-05-24T09:08:41Z</time>
      </trkpt>
      <trkpt lat="45.83164" lon="4.834">
        <ele>271.443</ele>
        <time>2015-05-24T09:08:46Z</time>
      </trkpt>
      <trkpt lat="45.83196" lon="4.83387">
        <ele>269.607</ele>
        <time>2015-05-24T09:08:51Z</time>
      </trkpt>
      <trkpt lat="45.83204" lon="4.8338">
        <ele>268.927</ele>
        <time>2015-05-24T09:08:52Z</time>
      </trkpt>
      <trkpt lat="45.83249" lon="4.83328">
        <ele>265.15</ele>
        <time>2015-05-24T09:09:00Z</time>
      </trkpt>
      <trkpt lat="45.8327" lon="4.83291">
        <ele>264.265</ele>
        <time>2015-05-24T09:09:05Z</time>
      </trkpt>
      <trkpt lat="45.83289" lon="4.83249">
        <ele>261.539</ele>
        <time>2015-05-24T09:09:12Z</time>
      </trkpt>
      <trkpt lat="45.83295" lon="4.83241">
        <ele>261.425</ele>
        <time>2015-05-24T09:09:14Z</time>
      </trkpt>
      <trkpt lat="45.83338" lon="4.8322">
        <ele>258.927</ele>
        <time>2015-05-24T09:09:25Z</time>
      </trkpt>
      <trkpt lat="45.83346" lon="4.83221">
        <ele>258.906</ele>
        <time>2015-05-24T09:09:27Z</time>
      </trkpt>
      <trkpt lat="45.8338" lon="4.83233">
        <ele>258.93</ele>
        <time>2015-05-24T09:09:32Z</time>
      </trkpt>
      <trkpt lat="45.83408" lon="4.83255">
        <ele>258.489</ele>
        <time>2015-05-24T09:09:36Z</time>
      </trkpt>
      <trkpt lat="45.83422" lon="4.83263">
        <ele>257.409</ele>
        <time>2015-05-24T09:09:38Z</time>
      </trkpt>
      <trkpt lat="45.83432" lon="4.83268">
        <ele>256.574</ele>
        <time>2015-05-24T09:09:40Z</time>
      </trkpt>
      <trkpt lat="45.83457" lon="4.83245">
        <ele>250.623</ele>
        <time>2015-05-24T09:09:44Z</time>
      </trkpt>
      <trkpt lat="45.83458" lon="4.83242">
        <ele>250.623</ele>
        <time>2015-05-24T09:09:45Z</time>
      </trkpt>
      <trkpt lat="45.83461" lon="4.83234">
        <ele>249.219</ele>
        <time>2015-05-24T09:09:47Z</time>
      </trkpt>
      <trkpt lat="45.83462" lon="4.83231">
        <ele>248.018</ele>
        <time>2015-05-24T09:09:48Z</time>
      </trkpt>
      <trkpt lat="45.83481" lon="4.83179">
        <ele>246.969</ele>
        <time>2015-05-24T09:09:57Z</time>
      </trkpt>
      <trkpt lat="45.83485" lon="4.83176">
        <ele>231.578</ele>
        <time>2015-05-24T09:10:00Z</time>
      </trkpt>
      <trkpt lat="45.83493" lon="4.83171">
        <ele>231.577</ele>
        <time>2015-05-24T09:10:01Z</time>
      </trkpt>
      <trkpt lat="45.83501" lon="4.83166">
        <ele>229.461</ele>
        <time>2015-05-24T09:10:02Z</time>
      </trkpt>
      <trkpt lat="45.83525" lon="4.83147">
        <ele>226.833</ele>
        <time>2015-05-24T09:10:05Z</time>
      </trkpt>
      <trkpt lat="45.83533" lon="4.8314">
        <ele>223.688</ele>
        <time>2015-05-24T09:10:06Z</time>
      </trkpt>
      <trkpt lat="45.83548" lon="4.83127">
        <ele>221.154</ele>
        <time>2015-05-24T09:10:08Z</time>
      </trkpt>
      <trkpt lat="45.83555" lon="4.8312">
        <ele>219.308</ele>
        <time>2015-05-24T09:10:09Z</time>
      </trkpt>
      <trkpt lat="45.83569" lon="4.83109">
        <ele>217.582</ele>
        <time>2015-05-24T09:10:11Z</time>
      </trkpt>
      <trkpt lat="45.83586" lon="4.83085">
        <ele>214.717</ele>
        <time>2015-05-24T09:10:15Z</time>
      </trkpt>
      <trkpt lat="45.83584" lon="4.83072">
        <ele>213.425</ele>
        <time>2015-05-24T09:10:18Z</time>
      </trkpt>
      <trkpt lat="45.83582" lon="4.83092">
        <ele>213.873</ele>
        <time>2015-05-24T09:10:24Z</time>
      </trkpt>
      <trkpt lat="45.83581" lon="4.83093">
        <ele>214.138</ele>
        <time>2015-05-24T09:10:42Z</time>
      </trkpt>
      <trkpt lat="45.83581" lon="4.83093">
        <ele>214.014</ele>
        <time>2015-05-24T09:10:47Z</time>
      </trkpt>
      <trkpt lat="45.83585" lon="4.83087">
        <ele>213.484</ele>
        <time>2015-05-24T09:10:52Z</time>
      </trkpt>
      <trkpt lat="45.83635" lon="4.83026">
        <ele>211.394</ele>
        <time>2015-05-24T09:11:07Z</time>
      </trkpt>
      <trkpt lat="45.83637" lon="4.83021">
        <ele>211.388</ele>
        <time>2015-05-24T09:11:08Z</time>
      </trkpt>
      <trkpt lat="45.83646" lon="4.83008">
        <ele>211.367</ele>
        <time>2015-05-24T09:11:11Z</time>
      </trkpt>
      <trkpt lat="45.83672" lon="4.82981">
        <ele>209.4</ele>
        <time>2015-05-24T09:11:17Z</time>
      </trkpt>
      <trkpt lat="45.83709" lon="4.8295">
        <ele>207.717</ele>
        <time>2015-05-24T09:11:24Z</time>
      </trkpt>
      <trkpt lat="45.83719" lon="4.82946">
        <ele>206.184</ele>
        <time>2015-05-24T09:11:26Z</time>
      </trkpt>
      <trkpt lat="45.83745" lon="4.82934">
        <ele>202.968</ele>
        <time>2015-05-24T09:11:32Z</time>
      </trkpt>
      <trkpt lat="45.83751" lon="4.82932">
        <ele>201.649</ele>
        <time>2015-05-24T09:11:34Z</time>
      </trkpt>
      <trkpt lat="45.83766" lon="4.82946">
        <ele>200.125</ele>
        <time>2015-05-24T09:11:39Z</time>
      </trkpt>
      <trkpt lat="45.83784" lon="4.82952">
        <ele>198.841</ele>
        <time>2015-05-24T09:11:43Z</time>
      </trkpt>
      <trkpt lat="45.83795" lon="4.82945">
        <ele>198.21</ele>
        <time>2015-05-24T09:11:45Z</time>
      </trkpt>
      <trkpt lat="45.83816" lon="4.8292">
        <ele>196.736</ele>
        <time>2015-05-24T09:11:49Z</time>
      </trkpt>
      <trkpt lat="45.83876" lon="4.82876">
        <ele>193.44</ele>
        <time>2015-05-24T09:11:58Z</time>
      </trkpt>
      <trkpt lat="45.83934" lon="4.82847">
        <ele>195.798</ele>
        <time>2015-05-24T09:12:09Z</time>
      </trkpt>
      <trkpt lat="45.83939" lon="4.82845">
        <ele>195.791</ele>
        <time>2015-05-24T09:12:10Z</time>
      </trkpt>
      <trkpt lat="45.83952" lon="4.82833">
        <ele>197.636</ele>
        <time>2015-05-24T09:12:14Z</time>
      </trkpt>
      <trkpt lat="45.83974" lon="4.82842">
        <ele>196.594</ele>
        <time>2015-05-24T09:12:19Z</time>
      </trkpt>
      <trkpt lat="45.83982" lon="4.82855">
        <ele>196.051</ele>
        <time>2015-05-24T09:12:21Z</time>
      </trkpt>
      <trkpt lat="45.83989" lon="4.82865">
        <ele>195.553</ele>
        <time>2015-05-24T09:12:23Z</time>
      </trkpt>
      <trkpt lat="45.84005" lon="4.82882">
        <ele>194.766</ele>
        <time>2015-05-24T09:12:27Z</time>
      </trkpt>
      <trkpt lat="45.84024" lon="4.82894">
        <ele>194.867</ele>
        <time>2015-05-24T09:12:30Z</time>
      </trkpt>
      <trkpt lat="45.8404" lon="4.82909">
        <ele>193.457</ele>
        <time>2015-05-24T09:12:33Z</time>
      </trkpt>
      <trkpt lat="45.8405" lon="4.8295">
        <ele>193.134</ele>
        <time>2015-05-24T09:12:38Z</time>
      </trkpt>
      <trkpt lat="45.84056" lon="4.8305">
        <ele>189.375</ele>
        <time>2015-05-24T09:12:49Z</time>
      </trkpt>
      <trkpt lat="45.84058" lon="4.83061">
        <ele>188.607</ele>
        <time>2015-05-24T09:12:51Z</time>
      </trkpt>
      <trkpt lat="45.84078" lon="4.83072">
        <ele>188.624</ele>
        <time>2015-05-24T09:12:57Z</time>
      </trkpt>
      <trkpt lat="45.84191" lon="4.83089">
        <ele>187.953</ele>
        <time>2015-05-24T09:13:17Z</time>
      </trkpt>
      <trkpt lat="45.84335" lon="4.83125">
        <ele>188.501</ele>
        <time>2015-05-24T09:13:43Z</time>
      </trkpt>
      <trkpt lat="45.84425" lon="4.83147">
        <ele>189.114</ele>
        <time>2015-05-24T09:14:01Z</time>
      </trkpt>
      <trkpt lat="45.84445" lon="4.83152">
        <ele>189.371</ele>
        <time>2015-05-24T09:14:05Z</time>
      </trkpt>
      <trkpt lat="45.84524" lon="4.83157">
        <ele>188.7</ele>
        <time>2015-05-24T09:14:21Z</time>
      </trkpt>
      <trkpt lat="45.84528" lon="4.8318">
        <ele>189.645</ele>
        <time>2015-05-24T09:14:26Z</time>
      </trkpt>
      <trkpt lat="45.84525" lon="4.83218">
        <ele>189.884</ele>
        <time>2015-05-24T09:14:39Z</time>
      </trkpt>
      <trkpt lat="45.84525" lon="4.83218">
        <ele>188.77</ele>
        <time>2015-05-24T09:14:57Z</time>
      </trkpt>
      <trkpt lat="45.84519" lon="4.83261">
        <ele>190.164</ele>
        <time>2015-05-24T09:15:05Z</time>
      </trkpt>
      <trkpt lat="45.84502" lon="4.83379">
        <ele>192.8</ele>
        <time>2015-05-24T09:15:22Z</time>
      </trkpt>
      <trkpt lat="45.84491" lon="4.83457">
        <ele>190.451</ele>
        <time>2015-05-24T09:15:33Z</time>
      </trkpt>
      <trkpt lat="45.84488" lon="4.83474">
        <ele>190.981</ele>
        <time>2015-05-24T09:15:36Z</time>
      </trkpt>
      <trkpt lat="45.84475" lon="4.83495">
        <ele>188.97</ele>
        <time>2015-05-24T09:15:39Z</time>
      </trkpt>
      <trkpt lat="45.84471" lon="4.83493">
        <ele>189.3</ele>
        <time>2015-05-24T09:15:40Z</time>
      </trkpt>
      <trkpt lat="45.84462" lon="4.83488">
        <ele>189.113</ele>
        <time>2015-05-24T09:15:42Z</time>
      </trkpt>
      <trkpt lat="45.84447" lon="4.83458">
        <ele>189.491</ele>
        <time>2015-05-24T09:15:46Z</time>
      </trkpt>
      <trkpt lat="45.84402" lon="4.83425">
        <ele>187.255</ele>
        <time>2015-05-24T09:15:53Z</time>
      </trkpt>
      <trkpt lat="45.84268" lon="4.83376">
        <ele>185.813</ele>
        <time>2015-05-24T09:16:10Z</time>
      </trkpt>
      <trkpt lat="45.84222" lon="4.8336">
        <ele>185.621</ele>
        <time>2015-05-24T09:16:16Z</time>
      </trkpt>
      <trkpt lat="45.84164" lon="4.83339">
        <ele>185.152</ele>
        <time>2015-05-24T09:16:23Z</time>
      </trkpt>
      <trkpt lat="45.84041" lon="4.83307">
        <ele>185.351</ele>
        <time>2015-05-24T09:16:39Z</time>
      </trkpt>
      <trkpt lat="45.83933" lon="4.83317">
        <ele>185.316</ele>
        <time>2015-05-24T09:16:55Z</time>
      </trkpt>
      <trkpt lat="45.83825" lon="4.83365">
        <ele>185.119</ele>
        <time>2015-05-24T09:17:12Z</time>
      </trkpt>
      <trkpt lat="45.83814" lon="4.83371">
        <ele>184.9</ele>
        <time>2015-05-24T09:17:14Z</time>
      </trkpt>
      <trkpt lat="45.83785" lon="4.83385">
        <ele>185.217</ele>
        <time>2015-05-24T09:17:20Z</time>
      </trkpt>
      <trkpt lat="45.83751" lon="4.83407">
        <ele>185.304</ele>
        <time>2015-05-24T09:17:27Z</time>
      </trkpt>
      <trkpt lat="45.83737" lon="4.83417">
        <ele>185.361</ele>
        <time>2015-05-24T09:17:30Z</time>
      </trkpt>
      <trkpt lat="45.83702" lon="4.83448">
        <ele>185.529</ele>
        <time>2015-05-24T09:17:38Z</time>
      </trkpt>
      <trkpt lat="45.83636" lon="4.83534">
        <ele>185.244</ele>
        <time>2015-05-24T09:17:55Z</time>
      </trkpt>
      <trkpt lat="45.83569" lon="4.83674">
        <ele>185.089</ele>
        <time>2015-05-24T09:18:17Z</time>
      </trkpt>
      <trkpt lat="45.83507" lon="4.83826">
        <ele>185.123</ele>
        <time>2015-05-24T09:18:38Z</time>
      </trkpt>
      <trkpt lat="45.83485" lon="4.83909">
        <ele>184.533</ele>
        <time>2015-05-24T09:18:50Z</time>
      </trkpt>
      <trkpt lat="45.83449" lon="4.84061">
        <ele>184.818</ele>
        <time>2015-05-24T09:19:09Z</time>
      </trkpt>
      <trkpt lat="45.83444" lon="4.84088">
        <ele>184.719</ele>
        <time>2015-05-24T09:19:13Z</time>
      </trkpt>
      <trkpt lat="45.83443" lon="4.84096">
        <ele>184.405</ele>
        <time>2015-05-24T09:19:15Z</time>
      </trkpt>
      <trkpt lat="45.83427" lon="4.84175">
        <ele>185.386</ele>
        <time>2015-05-24T09:19:28Z</time>
      </trkpt>
      <trkpt lat="45.83399" lon="4.84294">
        <ele>184.297</ele>
        <time>2015-05-24T09:19:48Z</time>
      </trkpt>
      <trkpt lat="45.83391" lon="4.84321">
        <ele>183.788</ele>
        <time>2015-05-24T09:19:52Z</time>
      </trkpt>
      <trkpt lat="45.83368" lon="4.84399">
        <ele>184.107</ele>
        <time>2015-05-24T09:20:08Z</time>
      </trkpt>
      <trkpt lat="45.83358" lon="4.84435">
        <ele>185.671</ele>
        <time>2015-05-24T09:20:20Z</time>
      </trkpt>
      <trkpt lat="45.83325" lon="4.84552">
        <ele>187.637</ele>
        <time>2015-05-24T09:20:38Z</time>
      </trkpt>
      <trkpt lat="45.8332" lon="4.84574">
        <ele>187.737</ele>
        <time>2015-05-24T09:20:41Z</time>
      </trkpt>
      <trkpt lat="45.83306" lon="4.8462">
        <ele>186.323</ele>
        <time>2015-05-24T09:20:47Z</time>
      </trkpt>
      <trkpt lat="45.83301" lon="4.84637">
        <ele>186.242</ele>
        <time>2015-05-24T09:20:49Z</time>
      </trkpt>
      <trkpt lat="45.83279" lon="4.84715">
        <ele>185.524</ele>
        <time>2015-05-24T09:20:59Z</time>
      </trkpt>
      <trkpt lat="45.8327" lon="4.84751">
        <ele>186.253</ele>
        <time>2015-05-24T09:21:08Z</time>
      </trkpt>
      <trkpt lat="45.83289" lon="4.84754">
        <ele>186.808</ele>
        <time>2015-05-24T09:21:12Z</time>
      </trkpt>
      <trkpt lat="45.83297" lon="4.84754">
        <ele>186.42</ele>
        <time>2015-05-24T09:21:14Z</time>
      </trkpt>
      <trkpt lat="45.83397" lon="4.84759">
        <ele>188.284</ele>
        <time>2015-05-24T09:21:34Z</time>
      </trkpt>
      <trkpt lat="45.83465" lon="4.84765">
        <ele>191.577</ele>
        <time>2015-05-24T09:21:48Z</time>
      </trkpt>
      <trkpt lat="45.8347" lon="4.84765">
        <ele>191.573</ele>
        <time>2015-05-24T09:21:49Z</time>
      </trkpt>
      <trkpt lat="45.83486" lon="4.84766">
        <ele>192.46</ele>
        <time>2015-05-24T09:21:53Z</time>
      </trkpt>
      <trkpt lat="45.83504" lon="4.84749">
        <ele>193.134</ele>
        <time>2015-05-24T09:21:57Z</time>
      </trkpt>
      <trkpt lat="45.83531" lon="4.84736">
        <ele>194.575</ele>
        <time>2015-05-24T09:22:03Z</time>
      </trkpt>
      <trkpt lat="45.83582" lon="4.84712">
        <ele>197.953</ele>
        <time>2015-05-24T09:22:14Z</time>
      </trkpt>
      <trkpt lat="45.83587" lon="4.8471">
        <ele>197.948</ele>
        <time>2015-05-24T09:22:15Z</time>
      </trkpt>
      <trkpt lat="45.8364" lon="4.84687">
        <ele>201.003</ele>
        <time>2015-05-24T09:22:28Z</time>
      </trkpt>
      <trkpt lat="45.83643" lon="4.84685">
        <ele>200.998</ele>
        <time>2015-05-24T09:22:29Z</time>
      </trkpt>
      <trkpt lat="45.83677" lon="4.84674">
        <ele>204.487</ele>
        <time>2015-05-24T09:22:39Z</time>
      </trkpt>
      <trkpt lat="45.83731" lon="4.84669">
        <ele>207.669</ele>
        <time>2015-05-24T09:22:53Z</time>
      </trkpt>
      <trkpt lat="45.83768" lon="4.84676">
        <ele>209.74</ele>
        <time>2015-05-24T09:23:02Z</time>
      </trkpt>
      <trkpt lat="45.83842" lon="4.84714">
        <ele>212.989</ele>
        <time>2015-05-24T09:23:19Z</time>
      </trkpt>
      <trkpt lat="45.83889" lon="4.84745">
        <ele>209.933</ele>
        <time>2015-05-24T09:23:27Z</time>
      </trkpt>
      <trkpt lat="45.8393" lon="4.84775">
        <ele>207.343</ele>
        <time>2015-05-24T09:23:33Z</time>
      </trkpt>
      <trkpt lat="45.84006" lon="4.84828">
        <ele>205.747</ele>
        <time>2015-05-24T09:23:45Z</time>
      </trkpt>
      <trkpt lat="45.8403" lon="4.84845">
        <ele>204.735</ele>
        <time>2015-05-24T09:23:50Z</time>
      </trkpt>
      <trkpt lat="45.84039" lon="4.84886">
        <ele>204.416</ele>
        <time>2015-05-24T09:23:56Z</time>
      </trkpt>
      <trkpt lat="45.84039" lon="4.84904">
        <ele>204.527</ele>
        <time>2015-05-24T09:23:59Z</time>
      </trkpt>
      <trkpt lat="45.84039" lon="4.84934">
        <ele>204.58</ele>
        <time>2015-05-24T09:24:04Z</time>
      </trkpt>
      <trkpt lat="45.84035" lon="4.84949">
        <ele>204.005</ele>
        <time>2015-05-24T09:24:12Z</time>
      </trkpt>
      <trkpt lat="45.84035" lon="4.84949">
        <ele>203.33</ele>
        <time>2015-05-24T09:24:49Z</time>
      </trkpt>
      <trkpt lat="45.84035" lon="4.84949">
        <ele>204.719</ele>
        <time>2015-05-24T09:24:54Z</time>
      </trkpt>
      <trkpt lat="45.84035" lon="4.84949">
        <ele>203.267</ele>
        <time>2015-05-24T09:25:29Z</time>
      </trkpt>
      <trkpt lat="45.84035" lon="4.84949">
        <ele>203.337</ele>
        <time>2015-05-24T09:26:40Z</time>
      </trkpt>
      <trkpt lat="45.84035" lon="4.84949">
        <ele>203.047</ele>
        <time>2015-05-24T09:27:11Z</time>
      </trkpt>
      <trkpt lat="45.84035" lon="4.84949">
        <ele>202.752</ele>
        <time>2015-05-24T09:28:01Z</time>
      </trkpt>
      <trkpt lat="45.84035" lon="4.84949">
        <ele>203.121</ele>
        <time>2015-05-24T09:28:39Z</time>
      </trkpt>
      <trkpt lat="45.84035" lon="4.84949">
        <ele>202.854</ele>
        <time>2015-05-24T09:29:35Z</time>
      </trkpt>
      <trkpt lat="45.84035" lon="4.84949">
        <ele>202.657</ele>
        <time>2015-05-24T09:30:00Z</time>
      </trkpt>
      <trkpt lat="45.84035" lon="4.84949">
        <ele>202.604</ele>
        <time>2015-05-24T09:30:14Z</time>
      </trkpt>
      <trkpt lat="45.84035" lon="4.84949">
        <ele>206.269</ele>
        <time>2015-05-24T09:30:17Z</time>
      </trkpt>
      <trkpt lat="45.84035" lon="4.84949">
        <ele>204.065</ele>
        <time>2015-05-24T09:30:18Z</time>
      </trkpt>
      <trkpt lat="45.84013" lon="4.84948">
        <ele>203.122</ele>
        <time>2015-05-24T09:30:40Z</time>
      </trkpt>
      <trkpt lat="45.84035" lon="4.84954">
        <ele>203.225</ele>
        <time>2015-05-24T09:31:17Z</time>
      </trkpt>
    </trkseg>
  </trk>
  <trk>
    <name><![CDATA[ACTIVE LOG113135]]></name>
    <trkseg>
      <trkpt lat="45.84028" lon="4.8495">
        <ele>202.509</ele>
        <time>2015-05-24T09:31:35Z</time>
      </trkpt>
      <trkpt lat="45.84028" lon="4.8495">
        <ele>204.282</ele>
        <time>2015-05-24T09:31:36Z</time>
      </trkpt>
    </trkseg>
  </trk>
  <trk>
    <name><![CDATA[ACTIVE LOG113137]]></name>
    <trkseg>
      <trkpt lat="45.84038" lon="4.84932">
        <ele>204.282</ele>
        <time>2015-05-24T09:31:37Z</time>
      </trkpt>
    </trkseg>
  </trk>
</gpx>